M I D A S
Marine Information and Data Acquisition System
Tripno 1243 of the Zeeleeuw from 2007-03-30 07:34:46 to 2007-03-30 14:13:55
Back to CruiseResearch ActivitiesStationsMapUnderway DataData graphs

EquipmentUnitsComment
TimeDGPSUTC
LatitudeDGPSDM.mWGS84
LongitudeDGPSDM.mWGS84
TemperatureSBE03/SBE38deg celciusITS90
ConductivitySBE21S/mITS90
SalinitySBE21 Practical Salinity Units
ChlorophylAChelsea fluorimeterg/lCalibrated in Aceton
Missing or incorrect values are displayed as -999
Sea surface data collected by the RV Zeeleeuw from 2007-03-30 07:35:03 to 2007-03-30 14:25:15
                                                                                    Next 1000 lines
Time Latitude Longitude Temperature Conductivity Salinity ChlorophylA
2007-03-30 07:35:13 51°13.602 2°56.095 9.5363 2.512462 21.096297 -2.871232
2007-03-30 07:35:17 51°13.602 2°56.093 9.6445 2.53003 21.288164 -2.871232
2007-03-30 07:35:23 51°13.603 2°56.089 9.6765 2.561137 21.619928 -2.871232
2007-03-30 07:35:28 51°13.604 2°56.085 9.5623 2.583152 21.870092 -2.871232
2007-03-30 07:35:34 51°13.605 2°56.08 9.3508 2.607751 22.148513 -2.871232
2007-03-30 07:35:39 51°13.606 2°56.075 9.2534 2.607751 22.148513 -2.871232
2007-03-30 07:35:45 51°13.608 2°56.069 9.2342 2.629871 22.398315 -2.871232
2007-03-30 07:35:51 51°13.609 2°56.062 9.1505 2.625117 22.374081 -2.871232
2007-03-30 07:35:56 51°13.611 2°56.056 9.1346 2.594316 22.072196 -2.871232
2007-03-30 07:36:01 51°13.613 2°56.05 9.1154 2.600931 22.150051 -2.871232
2007-03-30 07:36:06 51°13.614 2°56.044 9.0572 2.659126 22.772937 -2.871232
2007-03-30 07:36:11 51°13.616 2°56.037 9.0517 2.659126 22.772937 -2.871232
2007-03-30 07:36:16 51°13.618 2°56.03 9.0247 2.696755 23.203387 -2.871232
2007-03-30 07:36:21 51°13.619 2°56.023 9.0065 2.724876 23.526028 -2.871232
2007-03-30 07:36:26 51°13.621 2°56.015 8.9847 2.747415 23.78494 -2.871232
2007-03-30 07:36:31 51°13.623 2°56.007 8.9915 2.764062 23.977464 -2.871232
2007-03-30 07:36:36 51°13.625 2°55.999 8.9654 2.764062 23.977464 -2.871232
2007-03-30 07:36:41 51°13.627 2°55.991 8.947 2.770473 24.071506 -2.871232
2007-03-30 07:36:46 51°13.629 2°55.983 8.9297 2.769956 24.089983 -2.871232
2007-03-30 07:36:51 51°13.632 2°55.975 8.95 2.769439 24.107229 -2.871232
2007-03-30 07:36:56 51°13.634 2°55.968 8.9092 2.762926 24.066385 -2.871232
2007-03-30 07:37:01 51°13.637 2°55.96 8.8995 2.759721 24.05278 -2.871232
2007-03-30 07:37:06 51°13.64 2°55.953 8.887 2.759721 24.05278 -2.871232
2007-03-30 07:37:11 51°13.643 2°55.946 8.882 2.768613 24.153998 -2.871232
2007-03-30 07:37:16 51°13.645 2°55.938 8.8621 2.781745 24.294853 -2.871232
2007-03-30 07:37:21 51°13.648 2°55.931 8.8659 2.790327 24.38767 -2.871232
2007-03-30 07:37:26 51°13.65 2°55.925 8.8766 2.79498 24.443418 -2.871232
2007-03-30 07:37:31 51°13.652 2°55.918 8.8743 2.807492 24.576247 -2.871232
2007-03-30 07:37:36 51°13.655 2°55.912 8.8911 2.821142 24.718298 -2.871232
2007-03-30 07:37:41 51°13.658 2°55.906 8.8763 2.821142 24.718298 -2.871232
2007-03-30 07:37:46 51°13.66 2°55.9 8.8697 2.825175 24.768353 -2.871232
2007-03-30 07:37:51 51°13.663 2°55.895 8.8724 2.827967 24.807131 -2.871232
2007-03-30 07:37:56 51°13.666 2°55.89 8.8723 2.825071 24.782445 -2.871232
2007-03-30 07:38:01 51°13.668 2°55.885 8.8619 2.81866 24.720522 -2.871232
2007-03-30 07:38:06 51°13.671 2°55.881 8.8633 2.81866 24.720522 -2.871232
2007-03-30 07:38:11 51°13.674 2°55.877 8.8561 2.808733 24.62468 -2.871232
2007-03-30 07:38:16 51°13.676 2°55.873 8.8466 2.804494 24.587018 -2.871232
2007-03-30 07:38:21 51°13.677 2°55.87 8.843 2.79374 24.485197 -2.871232
2007-03-30 07:38:26 51°13.679 2°55.867 8.8581 2.790121 24.45158 -2.871232
2007-03-30 07:38:31 51°13.68 2°55.864 8.8557 2.781332 24.371982 -2.871232
2007-03-30 07:38:36 51°13.682 2°55.862 8.8457 2.781332 24.371982 -2.871232
2007-03-30 07:38:41 51°13.682 2°55.861 8.8428 2.769752 24.264183 -2.871232
2007-03-30 07:38:46 51°13.683 2°55.86 8.8381 2.769338 24.265341 -2.871232
2007-03-30 07:38:51 51°13.683 2°55.86 8.8452 2.776576 24.339015 -2.871232
2007-03-30 07:38:56 51°13.682 2°55.86 8.834 2.770476 24.280814 -2.871232
2007-03-30 07:39:01 51°13.682 2°55.861 8.8253 2.761067 24.190086 -2.871232
2007-03-30 07:39:06 51°13.683 2°55.86 8.8232 2.763548 24.218505 -2.871232
2007-03-30 07:39:10 51°13.683 2°55.86 8.8283 2.763548 24.218505 -2.871232
2007-03-30 07:39:16 51°13.683 2°55.859 8.8226 2.764375 24.229053 -2.871232
2007-03-30 07:39:20 51°13.684 2°55.857 8.8253 2.76665 24.252923 -2.871232
2007-03-30 07:39:25 51°13.685 2°55.855 8.8214 2.767271 24.261482 -2.871232
2007-03-30 07:39:30 51°13.686 2°55.851 8.8244 2.770579 24.298564 -2.871232
2007-03-30 07:39:36 51°13.689 2°55.846 8.8209 2.759206 24.192673 -2.871232
2007-03-30 07:39:41 51°13.691 2°55.842 8.8117 2.759206 24.192673 -2.871232
2007-03-30 07:39:46 51°13.693 2°55.836 8.8028 2.776266 24.359922 -2.871232
2007-03-30 07:39:51 51°13.696 2°55.832 8.791 2.779265 24.390823 -2.871232
2007-03-30 07:39:56 51°13.698 2°55.826 8.7832 2.780402 24.401809 -2.871232
2007-03-30 07:40:01 51°13.701 2°55.821 8.7757 2.778644 24.385478 -2.871232
2007-03-30 07:40:06 51°13.703 2°55.816 8.7774 2.778644 24.385478 -2.871232
2007-03-30 07:40:11 51°13.705 2°55.81 8.7706 2.775232 24.35511 -2.871232
2007-03-30 07:40:16 51°13.708 2°55.805 8.7718 2.791259 24.513868 -2.871232
2007-03-30 07:40:21 51°13.71 2°55.799 8.7622 2.808424 24.68643 -2.871232
2007-03-30 07:40:26 51°13.712 2°55.794 8.7689 2.833242 24.934704 -2.871232
2007-03-30 07:40:31 51°13.714 2°55.788 8.7676 2.84834 25.089094 -2.871232
2007-03-30 07:40:36 51°13.716 2°55.782 8.7686 2.84834 25.089094 -2.871232
2007-03-30 07:40:42 51°13.719 2°55.774 8.7646 2.871505 25.318687 -2.871232
2007-03-30 07:40:46 51°13.721 2°55.769 8.7711 2.878848 25.392059 -2.871232
2007-03-30 07:40:51 51°13.723 2°55.762 8.7662 2.881537 25.421575 -2.871232
2007-03-30 07:40:56 51°13.726 2°55.755 8.7646 2.885053 25.457793 -2.871232
2007-03-30 07:41:01 51°13.728 2°55.748 8.7511 2.888466 25.492339 -2.871232
2007-03-30 07:41:07 51°13.731 2°55.74 8.7491 2.8925 25.532252 -2.871232
2007-03-30 07:41:11 51°13.732 2°55.734 8.7562 2.8925 25.532252 -2.871232
2007-03-30 07:41:16 51°13.734 2°55.728 8.7508 2.892707 25.534943 -2.871232
2007-03-30 07:41:21 51°13.736 2°55.722 8.7424 2.891362 25.522543 -2.871232
2007-03-30 07:41:26 51°13.737 2°55.717 8.743 2.89674 25.576909 -2.871232
2007-03-30 07:41:31 51°13.738 2°55.712 8.7541 2.905014 25.662222 -2.871232
2007-03-30 07:41:36 51°13.74 2°55.707 8.7547 2.910806 25.722732 -2.871232
2007-03-30 07:41:41 51°13.741 2°55.703 8.7592 2.910806 25.722732 -2.871232
2007-03-30 07:41:46 51°13.742 2°55.7 8.7523 2.919184 25.805731 -2.871232
2007-03-30 07:41:50 51°13.743 2°55.698 8.7603 2.918563 25.801744 -2.871232
2007-03-30 07:41:56 51°13.743 2°55.698 8.7653 2.92177 25.836434 -2.871232
2007-03-30 07:42:01 51°13.743 2°55.698 8.7648 2.914323 25.763162 -2.871232
2007-03-30 07:42:05 51°13.744 2°55.699 8.7647 2.914323 25.763162 -2.871232
2007-03-30 07:42:10 51°13.744 2°55.7 8.7724 2.906773 25.686862 -2.871232
2007-03-30 07:42:16 51°13.745 2°55.701 8.7647 2.89643 25.585462 -2.871232
2007-03-30 07:42:20 51°13.745 2°55.702 8.7698 2.87709 25.397261 -2.871232
2007-03-30 07:42:25 51°13.745 2°55.702 8.7757 2.857337 25.202536 -2.871232
2007-03-30 07:42:30 51°13.745 2°55.701 8.7819 2.83924 25.025433 -2.871232
2007-03-30 07:42:35 51°13.745 2°55.7 8.7829 2.83924 25.025433 -2.871232
2007-03-30 07:42:40 51°13.745 2°55.698 8.7912 2.824659 24.883933 -2.871232
2007-03-30 07:42:45 51°13.745 2°55.695 8.7943 2.821764 24.853862 -2.871232
2007-03-30 07:42:50 51°13.745 2°55.693 8.79 2.81618 24.799711 -2.871232
2007-03-30 07:42:55 51°13.744 2°55.69 8.7917 2.803047 24.670443 -2.871232
2007-03-30 07:43:00 51°13.744 2°55.688 8.7821 2.783918 24.481916 -2.871232
2007-03-30 07:43:05 51°13.744 2°55.686 8.7727 2.75352 24.184673 -2.871232
2007-03-30 07:43:11 51°13.743 2°55.683 8.77 2.75352 24.184673 -2.871232
2007-03-30 07:43:16 51°13.743 2°55.681 8.76 2.745869 24.1069 -2.871232
2007-03-30 07:43:21 51°13.743 2°55.679 8.7608 2.733256 23.983828 -2.871232
2007-03-30 07:43:26 51°13.743 2°55.678 8.7575 2.726949 23.922325 -2.871232
2007-03-30 07:43:31 51°13.743 2°55.678 8.7525 2.730464 23.958158 -2.871232
2007-03-30 07:43:36 51°13.743 2°55.677 8.7527 2.750625 24.156698 -2.871232
2007-03-30 07:43:41 51°13.743 2°55.677 8.7498 2.750625 24.156698 -2.871232
2007-03-30 07:43:46 51°13.743 2°55.678 8.7486 2.762929 24.279496 -2.871232
2007-03-30 07:43:51 51°13.744 2°55.678 8.7532 2.779782 24.447739 -2.871232
2007-03-30 07:43:56 51°13.745 2°55.679 8.7537 2.78578 24.509059 -2.871232
2007-03-30 07:44:01 51°13.746 2°55.68 8.7518 2.794052 24.591799 -2.871232
2007-03-30 07:44:06 51°13.747 2°55.682 8.7567 2.794052 24.591799 -2.871232
2007-03-30 07:44:10 51°13.748 2°55.683 8.7556 2.805529 24.705665 -2.871232
2007-03-30 07:44:16 51°13.75 2°55.685 8.7535 2.810493 24.756428 -2.871232
2007-03-30 07:44:21 51°13.752 2°55.686 8.757 2.81163 24.768119 -2.871232
2007-03-30 07:44:25 51°13.754 2°55.686 8.7563 2.802634 24.680224 -2.871232
2007-03-30 07:44:30 51°13.757 2°55.687 8.7563 2.814009 24.791188 -2.871232
2007-03-30 07:44:35 51°13.759 2°55.687 8.7552 2.804702 24.700275 -2.871232
2007-03-30 07:44:40 51°13.762 2°55.688 8.7501 2.804702 24.700275 -2.871232
2007-03-30 07:44:45 51°13.765 2°55.687 8.7489 2.802841 24.682886 -2.871232
2007-03-30 07:44:50 51°13.769 2°55.686 8.749 2.797257 24.629413 -2.871232
2007-03-30 07:44:55 51°13.773 2°55.685 8.7472 2.793224 24.589674 -2.871232
2007-03-30 07:45:00 51°13.777 2°55.683 8.7569 2.794879 24.605052 -2.871232
2007-03-30 07:45:05 51°13.781 2°55.681 8.7588 2.786297 24.522549 -2.871232
2007-03-30 07:45:09 51°13.785 2°55.679 8.767 2.786297 24.522549 -2.871232
2007-03-30 07:45:14 51°13.789 2°55.676 8.7722 2.799325 24.651428 -2.871232
2007-03-30 07:45:20 51°13.795 2°55.671 8.781 2.804806 24.705881 -2.871232
2007-03-30 07:45:25 51°13.8 2°55.667 8.7883 2.805426 24.712556 -2.871232
2007-03-30 07:45:29 51°13.805 2°55.662 8.7911 2.795499 24.614996 -2.871232
2007-03-30 07:45:34 51°13.811 2°55.658 8.798 2.795499 24.614996 -2.871232
2007-03-30 07:45:39 51°13.818 2°55.652 8.8087 2.778335 24.446085 -2.871232
2007-03-30 07:45:44 51°13.824 2°55.647 8.8167 2.757759 24.243052 -2.871232
2007-03-30 07:45:49 51°13.832 2°55.641 8.8186 2.735117 24.019673 -2.871232
2007-03-30 07:45:54 51°13.839 2°55.634 8.8172 2.716197 23.831905 -2.871232
2007-03-30 07:45:59 51°13.847 2°55.628 8.8169 2.691076 23.58524 -2.871232
2007-03-30 07:46:04 51°13.855 2°55.621 8.8211 2.691076 23.58524 -2.871232
2007-03-30 07:46:09 51°13.864 2°55.614 8.8253 2.670504 23.382127 -2.871232
2007-03-30 07:46:14 51°13.872 2°55.607 8.8194 2.644764 23.129014 -2.871232
2007-03-30 07:46:18 51°13.88 2°55.602 8.8161 2.620577 22.891834 -2.871232
2007-03-30 07:46:23 51°13.889 2°55.593 8.8065 2.604866 22.738096 -2.871232
2007-03-30 07:46:28 51°13.899 2°55.585 8.8035 2.600111 22.691308 -2.871232
2007-03-30 07:46:33 51°13.909 2°55.577 8.7967 2.598251 22.671669 -2.871232
2007-03-30 07:46:38 51°13.92 2°55.569 8.789 2.598251 22.671669 -2.871232
2007-03-30 07:46:43 51°13.93 2°55.56 8.7813 2.595047 22.639761 -2.871232
2007-03-30 07:46:48 51°13.941 2°55.552 8.7778 2.603005 22.716033 -2.871232
2007-03-30 07:46:53 51°13.953 2°55.544 8.7717 2.612205 22.806655 -2.871232
2007-03-30 07:46:58 51°13.964 2°55.535 8.7614 2.628329 22.965636 -2.871232
2007-03-30 07:47:03 51°13.976 2°55.526 8.7683 2.636598 23.049326 -2.871232
2007-03-30 07:47:07 51°13.986 2°55.519 8.7644 2.636598 23.049326 -2.871232
2007-03-30 07:47:13 51°14 2°55.508 8.759 2.65262 23.208229 -2.871232
2007-03-30 07:47:18 51°14.012 2°55.499 8.7556 2.690042 23.572144 -2.871232
2007-03-30 07:47:23 51°14.024 2°55.491 8.7592 2.707203 23.742604 -2.871232
2007-03-30 07:47:28 51°14.036 2°55.482 8.7538 2.726846 23.937237 -2.871232
2007-03-30 07:47:33 51°14.049 2°55.473 8.7577 2.726846 23.937237 -2.871232
2007-03-30 07:47:38 51°14.061 2°55.464 8.7538 2.735013 24.019313 -2.871232
2007-03-30 07:47:43 51°14.073 2°55.455 8.7528 2.752383 24.189121 -2.871232
2007-03-30 07:47:48 51°14.085 2°55.446 8.756 2.762722 24.293004 -2.871232
2007-03-30 07:47:53 51°14.097 2°55.437 8.7565 2.772441 24.387719 -2.871232
2007-03-30 07:47:58 51°14.109 2°55.428 8.7535 2.773269 24.397026 -2.871232
2007-03-30 07:48:03 51°14.122 2°55.418 8.7596 2.77575 24.421703 -2.871232
2007-03-30 07:48:08 51°14.134 2°55.409 8.7557 2.77575 24.421703 -2.871232
2007-03-30 07:48:13 51°14.146 2°55.398 8.7568 2.774303 24.409636 -2.871232
2007-03-30 07:48:19 51°14.16 2°55.385 8.7554 2.774923 24.416294 -2.871232
2007-03-30 07:48:24 51°14.171 2°55.374 8.7578 2.771614 24.384255 -2.871232
2007-03-30 07:48:29 51°14.182 2°55.363 8.7553 2.76934 24.36288 -2.871232
2007-03-30 07:48:34 51°14.194 2°55.351 8.7551 2.764066 24.31054 -2.871232
2007-03-30 07:48:38 51°14.202 2°55.341 8.7484 2.764066 24.31054 -2.871232
2007-03-30 07:48:43 51°14.214 2°55.328 8.75 2.754658 24.219496 -2.871232
2007-03-30 07:48:48 51°14.224 2°55.315 8.7505 2.756312 24.235501 -2.871232
2007-03-30 07:48:53 51°14.235 2°55.301 8.7409 2.756519 24.238147 -2.871232
2007-03-30 07:48:58 51°14.245 2°55.287 8.7445 2.756725 24.240147 -2.871232
2007-03-30 07:49:03 51°14.255 2°55.272 8.7483 2.756725 24.240147 -2.871232
2007-03-30 07:49:08 51°14.264 2°55.256 8.7403 2.755485 24.228788 -2.871232
2007-03-30 07:49:13 51°14.273 2°55.24 8.745 2.754658 24.223365 -2.871232
2007-03-30 07:49:18 51°14.282 2°55.223 8.7455 2.749178 24.170995 -2.871232
2007-03-30 07:49:23 51°14.291 2°55.206 8.746 2.744629 24.129563 -2.871232
2007-03-30 07:49:28 51°14.301 2°55.188 8.755 2.73977 24.084491 -2.871232
2007-03-30 07:49:33 51°14.31 2°55.17 8.7574 2.73977 24.084491 -2.871232
2007-03-30 07:49:38 51°14.32 2°55.151 8.7592 2.733153 24.02051 -2.871232
2007-03-30 07:49:43 51°14.33 2°55.132 8.7503 2.730568 23.996801 -2.871232
2007-03-30 07:49:47 51°14.338 2°55.117 8.7396 2.718989 23.884894 -2.871232
2007-03-30 07:49:53 51°14.35 2°55.093 8.7386 2.704722 23.746465 -2.871232
2007-03-30 07:49:57 51°14.357 2°55.076 8.7304 2.691283 23.614237 -2.871232
2007-03-30 07:50:03 51°14.369 2°55.051 8.7163 2.676913 23.472531 -2.871232
2007-03-30 07:50:08 51°14.378 2°55.029 8.7131 2.676913 23.472531 -2.871232
2007-03-30 07:50:13 51°14.386 2°55.006 8.6956 2.67805 23.482867 -2.871232
2007-03-30 07:50:17 51°14.393 2°54.987 8.7036 2.686527 23.566482 -2.871232
2007-03-30 07:50:23 51°14.403 2°54.957 8.687 2.702241 23.72188 -2.871232
2007-03-30 07:50:28 51°14.411 2°54.933 8.683 2.726639 23.963931 -2.871232
2007-03-30 07:50:33 51°14.42 2°54.907 8.6652 2.75321 24.227422 -2.871232
2007-03-30 07:50:38 51°14.429 2°54.882 8.649 2.75321 24.227422 -2.871232
2007-03-30 07:50:43 51°14.438 2°54.856 8.6392 2.772338 24.41987 -2.871232
2007-03-30 07:50:48 51°14.446 2°54.829 8.6312 2.798498 24.679548 -2.871232
2007-03-30 07:50:53 51°14.454 2°54.802 8.6213 2.819593 24.889095 -2.871232
2007-03-30 07:50:57 51°14.46 2°54.78 8.6173 2.850823 25.200946 -2.871232
2007-03-30 07:51:03 51°14.467 2°54.747 8.6155 2.850823 25.200946 -2.871232
2007-03-30 07:51:08 51°14.474 2°54.718 8.6228 2.88009 25.497024 -2.871232
2007-03-30 07:51:13 51°14.48 2°54.69 8.6079 2.94825 26.173491 -2.871232
2007-03-30 07:51:18 51°14.486 2°54.661 8.6173 2.993557 26.62679 -2.871232
2007-03-30 07:51:23 51°14.493 2°54.633 8.6172 3.036489 27.057977 -2.871232
2007-03-30 07:51:27 51°14.498 2°54.61 8.6115 3.074873 27.443258 -2.871232
2007-03-30 07:51:33 51°14.508 2°54.577 8.6264 3.102913 27.725037 -2.871232
2007-03-30 07:51:38 51°14.516 2°54.549 8.5979 3.102913 27.725037 -2.871232
2007-03-30 07:51:43 51°14.526 2°54.523 8.5882 3.117089 27.865776 -2.871232
2007-03-30 07:51:48 51°14.536 2°54.498 8.5781 3.135197 28.047746 -2.871232
2007-03-30 07:51:53 51°14.548 2°54.474 8.5569 3.143683 28.131667 -2.871232
2007-03-30 07:51:58 51°14.56 2°54.452 8.5652 3.149891 28.19234 -2.871232
2007-03-30 07:52:03 51°14.573 2°54.429 8.5439 3.150202 28.196166 -2.871232
2007-03-30 07:52:08 51°14.586 2°54.407 8.5444 3.150202 28.196166 -2.871232
2007-03-30 07:52:13 51°14.598 2°54.384 8.5352 3.158274 28.281349 -2.871232
2007-03-30 07:52:18 51°14.612 2°54.364 8.5389 3.166346 28.372673 -2.871232
2007-03-30 07:52:23 51°14.626 2°54.344 8.5258 3.17359 28.454368 -2.871232
2007-03-30 07:52:28 51°14.641 2°54.325 8.535 3.178143 28.509451 -2.871232
2007-03-30 07:52:33 51°14.656 2°54.308 8.5193 3.178143 28.509451 -2.871232
2007-03-30 07:52:38 51°14.672 2°54.294 8.5079 3.177109 28.507589 -2.871232
2007-03-30 07:52:43 51°14.689 2°54.28 8.5107 3.190562 28.647276 -2.871232
2007-03-30 07:52:48 51°14.705 2°54.268 8.5094 3.1976 28.72257 -2.871232
2007-03-30 07:52:53 51°14.722 2°54.255 8.504 3.202464 28.775539 -2.871232
2007-03-30 07:52:57 51°14.735 2°54.245 8.4891 3.203189 28.78583 -2.871232
2007-03-30 07:53:03 51°14.755 2°54.229 8.489 3.203189 28.78583 -2.871232
2007-03-30 07:53:08 51°14.772 2°54.215 8.4865 3.210951 28.870758 -2.871232
2007-03-30 07:53:13 51°14.788 2°54.201 8.4863 3.216333 28.932067 -2.871232
2007-03-30 07:53:18 51°14.805 2°54.188 8.4929 3.216436 28.936982 -2.871232
2007-03-30 07:53:22 51°14.818 2°54.176 8.489 3.21892 28.966376 -2.871232
2007-03-30 07:53:27 51°14.834 2°54.162 8.4906 3.226269 29.047358 -2.871232
2007-03-30 07:53:33 51°14.853 2°54.145 8.4859 3.230098 29.091767 -2.871232
2007-03-30 07:53:38 51°14.87 2°54.132 8.4913 3.230098 29.091767 -2.871232
2007-03-30 07:53:43 51°14.886 2°54.118 8.493 3.232893 29.121969 -2.871232
2007-03-30 07:53:48 51°14.903 2°54.105 8.4901 3.230099 29.096458 -2.871232
2007-03-30 07:53:53 51°14.919 2°54.092 8.4939 3.226683 29.060851 -2.871232
2007-03-30 07:53:58 51°14.936 2°54.079 8.4847 3.235274 29.145702 -2.871232
2007-03-30 07:54:03 51°14.953 2°54.066 8.4873 3.234032 29.134885 -2.871232
2007-03-30 07:54:08 51°14.969 2°54.053 8.4876 3.234032 29.134885 -2.871232
2007-03-30 07:54:13 51°14.986 2°54.04 8.488 3.239724 29.192433 -2.871232
2007-03-30 07:54:18 51°15.002 2°54.026 8.4866 3.238793 29.182359 -2.871232
2007-03-30 07:54:23 51°15.019 2°54.013 8.4815 3.242001 29.214358 -2.871232
2007-03-30 07:54:28 51°15.036 2°53.999 8.4782 3.243243 29.227531 -2.871232
2007-03-30 07:54:33 51°15.052 2°53.985 8.4734 3.243243 29.227531 -2.871232
2007-03-30 07:54:37 51°15.065 2°53.975 8.4727 3.247797 29.273748 -2.871232
2007-03-30 07:54:43 51°15.085 2°53.958 8.4715 3.243036 29.227823 -2.871232
2007-03-30 07:54:48 51°15.102 2°53.945 8.4693 3.247487 29.273011 -2.871232
2007-03-30 07:54:53 51°15.119 2°53.931 8.4712 3.243864 29.239227 -2.871232
2007-03-30 07:54:57 51°15.132 2°53.921 8.465 3.247694 29.279799 -2.871232
2007-03-30 07:55:03 51°15.152 2°53.905 8.466 3.247694 29.279799 -2.871232
2007-03-30 07:55:08 51°15.168 2°53.892 8.4603 3.24935 29.299477 -2.871232
2007-03-30 07:55:13 51°15.185 2°53.878 8.464 3.252973 29.337215 -2.871232
2007-03-30 07:55:17 51°15.199 2°53.868 8.4668 3.254111 29.350161 -2.871232
2007-03-30 07:55:23 51°15.219 2°53.853 8.4591 3.254319 29.354596 -2.871232
2007-03-30 07:55:28 51°15.236 2°53.839 8.4643 3.255871 29.372469 -2.871232
2007-03-30 07:55:33 51°15.252 2°53.826 8.4669 3.246349 29.278967 -2.871232
2007-03-30 07:55:38 51°15.269 2°53.812 8.4692 3.246349 29.278967 -2.871232
2007-03-30 07:55:42 51°15.282 2°53.801 8.4654 3.252145 29.339206 -2.871232
2007-03-30 07:55:48 51°15.302 2°53.785 8.4591 3.25494 29.367906 -2.871232
2007-03-30 07:55:53 51°15.319 2°53.771 8.4632 3.253594 29.355256 -2.871232
2007-03-30 07:55:58 51°15.336 2°53.757 8.4628 3.253387 29.353979 -2.871232
2007-03-30 07:56:02 51°15.349 2°53.746 8.4572 3.250489 29.324246 -2.871232
2007-03-30 07:56:07 51°15.366 2°53.732 8.4549 3.250489 29.324246 -2.871232
2007-03-30 07:56:12 51°15.382 2°53.718 8.45 3.254008 29.357812 -2.871232
2007-03-30 07:56:18 51°15.402 2°53.701 8.4489 3.253801 29.357324 -2.871232
2007-03-30 07:56:23 51°15.419 2°53.687 8.4467 3.252042 29.341329 -2.871232
2007-03-30 07:56:28 51°15.435 2°53.673 8.4526 3.250075 29.321689 -2.871232
2007-03-30 07:56:33 51°15.452 2°53.658 8.4514 3.250075 29.321689 -2.871232
2007-03-30 07:56:38 51°15.468 2°53.645 8.4505 3.253905 29.361517 -2.871232
2007-03-30 07:56:43 51°15.485 2°53.631 8.452 3.248108 29.306781 -2.871232
2007-03-30 07:56:48 51°15.502 2°53.618 8.4398 3.254526 29.374044 -2.871232
2007-03-30 07:56:52 51°15.515 2°53.607 8.4411 3.256803 29.39917 -2.871232
2007-03-30 07:56:57 51°15.532 2°53.593 8.426 3.256492 29.396858 -2.871232
2007-03-30 07:57:03 51°15.552 2°53.577 8.4223 3.255147 29.383412 -2.871232
2007-03-30 07:57:08 51°15.568 2°53.564 8.4266 3.255147 29.383412 -2.871232
2007-03-30 07:57:12 51°15.582 2°53.554 8.4158 3.25287 29.360658 -2.871232
2007-03-30 07:57:17 51°15.598 2°53.54 8.418 3.255147 29.384993 -2.871232
2007-03-30 07:57:23 51°15.618 2°53.524 8.4141 3.257114 29.407813 -2.871232
2007-03-30 07:57:28 51°15.635 2°53.511 8.4155 3.258666 29.428878 -2.871232
2007-03-30 07:57:33 51°15.652 2°53.497 8.414 3.264359 29.49136 -2.871232
2007-03-30 07:57:37 51°15.665 2°53.487 8.4073 3.264359 29.49136 -2.871232
2007-03-30 07:57:43 51°15.685 2°53.471 8.4098 3.261772 29.468653 -2.871232
2007-03-30 07:57:48 51°15.702 2°53.458 8.4058 3.271398 29.569737 -2.871232
2007-03-30 07:57:53 51°15.719 2°53.445 8.4065 3.271294 29.57109 -2.871232
2007-03-30 07:57:58 51°15.735 2°53.432 8.4096 3.275849 29.619074 -2.871232
2007-03-30 07:58:02 51°15.749 2°53.422 8.4073 3.275849 29.619074 -2.871232
2007-03-30 07:58:08 51°15.769 2°53.406 8.4066 3.275124 29.613416 -2.871232
2007-03-30 07:58:13 51°15.786 2°53.392 8.4148 3.273158 29.595321 -2.871232
2007-03-30 07:58:17 51°15.799 2°53.382 8.4143 3.278333 29.647942 -2.871232
2007-03-30 07:58:23 51°15.819 2°53.365 8.4065 3.278851 29.655522 -2.871232
2007-03-30 07:58:28 51°15.836 2°53.352 8.4178 3.279058 29.658395 -2.871232
2007-03-30 07:58:33 51°15.852 2°53.338 8.4148 3.283509 29.704581 -2.871232
2007-03-30 07:58:38 51°15.869 2°53.325 8.4131 3.283509 29.704581 -2.871232
2007-03-30 07:58:43 51°15.885 2°53.311 8.4139 3.279058 29.659994 -2.871232
2007-03-30 07:58:48 51°15.902 2°53.298 8.4211 3.282888 29.696758 -2.871232
2007-03-30 07:58:53 51°15.918 2°53.285 8.4222 3.283509 29.702179 -2.871232
2007-03-30 07:58:58 51°15.935 2°53.272 8.4305 3.280197 29.6682 -2.871232
2007-03-30 07:59:03 51°15.952 2°53.259 8.4357 3.285579 29.722117 -2.871232
2007-03-30 07:59:08 51°15.968 2°53.246 8.4415 3.285579 29.722117 -2.871232
2007-03-30 07:59:13 51°15.985 2°53.232 8.4412 3.291583 29.781469 -2.871232
2007-03-30 07:59:17 51°15.998 2°53.222 8.4469 3.292515 29.789199 -2.871232
2007-03-30 07:59:22 51°16.014 2°53.208 8.4477 3.288685 29.748419 -2.871232
2007-03-30 07:59:28 51°16.034 2°53.193 8.4535 3.298725 29.845814 -2.871232
2007-03-30 07:59:33 51°16.051 2°53.18 8.4527 3.300899 29.861967 -2.871232
2007-03-30 07:59:38 51°16.067 2°53.167 8.4509 3.300899 29.861967 -2.871232
2007-03-30 07:59:43 51°16.084 2°53.155 8.4526 3.304108 29.889294 -2.871232
2007-03-30 07:59:48 51°16.1 2°53.142 8.4528 3.306593 29.910161 -2.871232
2007-03-30 07:59:53 51°16.117 2°53.129 8.4555 3.304315 29.884124 -2.871232
2007-03-30 07:59:58 51°16.134 2°53.117 8.4575 3.309698 29.934831 -2.871232
2007-03-30 08:00:03 51°16.15 2°53.104 8.4575 3.309698 29.934831 -2.871232
2007-03-30 08:00:08 51°16.167 2°53.092 8.4616 3.302969 29.865818 -2.871232
2007-03-30 08:00:13 51°16.183 2°53.079 8.4666 3.308973 29.925154 -2.871232
2007-03-30 08:00:18 51°16.2 2°53.066 8.4639 3.310837 29.942209 -2.871232
2007-03-30 08:00:22 51°16.213 2°53.056 8.4575 3.312079 29.953848 -2.871232
2007-03-30 08:00:28 51°16.233 2°53.041 8.4674 3.312389 29.955347 -2.871232
2007-03-30 08:00:33 51°16.25 2°53.029 8.4577 3.314874 29.977817 -2.871232
2007-03-30 08:00:38 51°16.266 2°53.016 8.4618 3.314874 29.977817 -2.871232
2007-03-30 08:00:43 51°16.283 2°53.003 8.4646 3.313735 29.965602 -2.871232
2007-03-30 08:00:48 51°16.299 2°52.991 8.4625 3.309905 29.925625 -2.871232
2007-03-30 08:00:53 51°16.316 2°52.978 8.4666 3.310112 29.926893 -2.871232
2007-03-30 08:00:58 51°16.332 2°52.965 8.4634 3.311044 29.935418 -2.871232
2007-03-30 08:01:03 51°16.349 2°52.953 8.4702 3.314046 29.966294 -2.871232
2007-03-30 08:01:08 51°16.366 2°52.94 8.4627 3.314046 29.966294 -2.871232
2007-03-30 08:01:13 51°16.382 2°52.928 8.4612 3.310733 29.933114 -2.871232
2007-03-30 08:01:18 51°16.399 2°52.915 8.4572 3.313425 29.959266 -2.871232
2007-03-30 08:01:22 51°16.412 2°52.905 8.4558 3.309698 29.921135 -2.871232
2007-03-30 08:01:28 51°16.432 2°52.89 8.458 3.311147 29.935649 -2.871232
2007-03-30 08:01:32 51°16.445 2°52.881 8.4607 3.315702 29.979658 -2.871232
2007-03-30 08:01:38 51°16.465 2°52.865 8.4552 3.315702 29.979658 -2.871232
2007-03-30 08:01:43 51°16.482 2°52.853 8.4649 3.315081 29.974243 -2.871232
2007-03-30 08:01:48 51°16.498 2°52.84 8.4585 3.312286 29.947054 -2.871232
2007-03-30 08:01:53 51°16.515 2°52.828 8.4606 3.313321 29.959841 -2.871232
2007-03-30 08:01:57 51°16.529 2°52.818 8.456 3.311458 29.942789 -2.871232
2007-03-30 08:02:03 51°16.549 2°52.804 8.452 3.311458 29.942789 -2.871232
2007-03-30 08:02:08 51°16.566 2°52.792 8.4524 3.310112 29.930115 -2.871232
2007-03-30 08:02:13 51°16.583 2°52.781 8.4498 3.308352 29.912489 -2.871232
2007-03-30 08:02:18 51°16.599 2°52.769 8.4544 3.306592 29.89406 -2.871232
2007-03-30 08:02:22 51°16.613 2°52.76 8.4591 3.307731 29.905463 -2.871232
2007-03-30 08:02:28 51°16.633 2°52.746 8.4516 3.310009 29.929078 -2.871232
2007-03-30 08:02:33 51°16.65 2°52.734 8.4551 3.310009 29.931495 -2.871232
2007-03-30 08:02:37 51°16.663 2°52.724 8.4543 3.310009 29.931495 -2.871232
2007-03-30 08:02:43 51°16.683 2°52.711 8.4484 3.309802 29.931033 -2.871232
2007-03-30 08:02:48 51°16.7 2°52.699 8.4499 3.309284 29.925042 -2.871232
2007-03-30 08:02:52 51°16.713 2°52.69 8.4472 3.30535 29.884033 -2.871232
2007-03-30 08:02:58 51°16.733 2°52.676 8.4446 3.305557 29.886911 -2.871232
2007-03-30 08:03:03 51°16.75 2°52.664 8.4454 3.296344 29.795463 -2.871232
2007-03-30 08:03:08 51°16.766 2°52.653 8.4435 3.296344 29.795463 -2.871232
2007-03-30 08:03:13 51°16.783 2°52.641 8.4414 3.293963 29.772431 -2.871232
2007-03-30 08:03:18 51°16.8 2°52.63 8.4428 3.296137 29.795797 -2.871232
2007-03-30 08:03:23 51°16.816 2°52.619 8.4471 3.303694 29.872271 -2.871232
2007-03-30 08:03:28 51°16.833 2°52.607 8.443 3.300174 29.839433 -2.871232
2007-03-30 08:03:33 51°16.85 2°52.596 8.4403 3.300174 29.839433 -2.871232
2007-03-30 08:03:37 51°16.863 2°52.586 8.4417 3.302762 29.866156 -2.871232
2007-03-30 08:03:42 51°16.879 2°52.574 8.4453 3.303694 29.877097 -2.871232
2007-03-30 08:03:48 51°16.899 2°52.56 8.4414 3.304315 29.884124 -2.871232
2007-03-30 08:03:53 51°16.916 2°52.548 8.4452 3.301417 29.855893 -2.871232
2007-03-30 08:03:58 51°16.932 2°52.537 8.4457 3.299864 29.84034 -2.871232
2007-03-30 08:04:03 51°16.949 2°52.525 8.4423 3.298829 29.829972 -2.871232
2007-03-30 08:04:08 51°16.966 2°52.513 8.4403 3.298829 29.829972 -2.871232
2007-03-30 08:04:13 51°16.982 2°52.501 8.4441 3.306386 29.90567 -2.871232
2007-03-30 08:04:18 51°16.999 2°52.49 8.4445 3.299553 29.83723 -2.871232
2007-03-30 08:04:23 51°17.015 2°52.478 8.4417 3.295723 29.798069 -2.871232
2007-03-30 08:04:28 51°17.032 2°52.467 8.4407 3.302348 29.864421 -2.871232
2007-03-30 08:04:33 51°17.049 2°52.455 8.4433 3.292721 29.768811 -2.871232
2007-03-30 08:04:38 51°17.065 2°52.443 8.4414 3.292721 29.768811 -2.871232
2007-03-30 08:04:42 51°17.078 2°52.434 8.4384 3.299346 29.835156 -2.871232
2007-03-30 08:04:48 51°17.098 2°52.419 8.4393 3.289926 29.740028 -2.871232
2007-03-30 08:04:53 51°17.115 2°52.407 8.4424 3.295516 29.796798 -2.871232
2007-03-30 08:04:58 51°17.131 2°52.395 8.4403 3.297794 29.820408 -2.871232
2007-03-30 08:05:03 51°17.148 2°52.384 8.4416 3.298104 29.823518 -2.871232
2007-03-30 08:05:08 51°17.164 2°52.372 8.4405 3.298104 29.823518 -2.871232
2007-03-30 08:05:12 51°17.178 2°52.363 8.4402 3.295206 29.795293 -2.871232
2007-03-30 08:05:18 51°17.198 2°52.349 8.4441 3.295827 29.801513 -2.871232
2007-03-30 08:05:23 51°17.214 2°52.337 8.4419 3.294585 29.789073 -2.871232
2007-03-30 08:05:28 51°17.231 2°52.325 8.4443 3.302969 29.873056 -2.871232
2007-03-30 08:05:33 51°17.248 2°52.313 8.4416 3.302969 29.873056 -2.871232
2007-03-30 08:05:38 51°17.264 2°52.301 8.4433 3.299243 29.83653 -2.871232
2007-03-30 08:05:43 51°17.281 2°52.289 8.4432 3.298829 29.832382 -2.871232
2007-03-30 08:05:48 51°17.298 2°52.277 8.4439 3.296655 29.810609 -2.871232
2007-03-30 08:05:53 51°17.314 2°52.265 8.4409 3.294585 29.789073 -2.871232
2007-03-30 08:05:57 51°17.327 2°52.255 8.441 3.296862 29.811077 -2.871232
2007-03-30 08:06:03 51°17.347 2°52.241 8.4432 3.29976 29.840911 -2.871232
2007-03-30 08:06:08 51°17.364 2°52.229 8.4418 3.29976 29.840911 -2.871232
2007-03-30 08:06:12 51°17.377 2°52.22 8.4436 3.295102 29.793454 -2.871232
2007-03-30 08:06:17 51°17.394 2°52.208 8.441 3.298518 29.827665 -2.871232
2007-03-30 08:06:23 51°17.414 2°52.194 8.4456 3.285993 29.702251 -2.871232
2007-03-30 08:06:28 51°17.43 2°52.182 8.4446 3.298829 29.831579 -2.871232
2007-03-30 08:06:33 51°17.447 2°52.17 8.4435 3.298311 29.826395 -2.871232
2007-03-30 08:06:37 51°17.46 2°52.161 8.4384 3.298311 29.826395 -2.871232
2007-03-30 08:06:43 51°17.48 2°52.146 8.4418 3.298104 29.823518 -2.871232
2007-03-30 08:06:48 51°17.496 2°52.134 8.4412 3.300278 29.845291 -2.871232
2007-03-30 08:06:53 51°17.513 2°52.123 8.4385 3.299967 29.841377 -2.871232
2007-03-30 08:06:58 51°17.529 2°52.111 8.4401 3.291893 29.759718 -2.871232
2007-03-30 08:07:03 51°17.546 2°52.099 8.4404 3.296344 29.805091 -2.871232
2007-03-30 08:07:08 51°17.562 2°52.087 8.4423 3.296344 29.805091 -2.871232
2007-03-30 08:07:13 51°17.579 2°52.075 8.443 3.295102 29.794256 -2.871232
2007-03-30 08:07:18 51°17.595 2°52.061 8.4413 3.295102 29.794256 -2.871232
2007-03-30 08:07:22 51°17.607 2°52.051 8.4406 3.299553 29.83964 -2.871232
2007-03-30 08:07:28 51°17.626 2°52.034 8.4384 3.298622 29.830309 -2.871232
2007-03-30 08:07:33 51°17.642 2°52.02 8.4409 3.293964 29.783656 -2.871232
2007-03-30 08:07:38 51°17.658 2°52.005 8.4407 3.293964 29.783656 -2.871232
2007-03-30 08:07:42 51°17.671 2°51.994 8.4422 3.296655 29.810609 -2.871232
2007-03-30 08:07:48 51°17.69 2°51.976 8.441 3.298725 29.830542 -2.871232
2007-03-30 08:07:53 51°17.705 2°51.962 8.4425 3.299657 29.840677 -2.871232
2007-03-30 08:07:58 51°17.721 2°51.947 8.4434 3.283923 29.683926 -2.871232
2007-03-30 08:08:03 51°17.736 2°51.931 8.4457 3.299553 29.83964 -2.871232
2007-03-30 08:08:08 51°17.752 2°51.916 8.4448 3.299553 29.83964 -2.871232
2007-03-30 08:08:13 51°17.767 2°51.902 8.4481 3.296448 29.809339 -2.871232
2007-03-30 08:08:17 51°17.78 2°51.89 8.4444 3.301727 29.861416 -2.871232
2007-03-30 08:08:23 51°17.799 2°51.872 8.4421 3.296966 29.812917 -2.871232
2007-03-30 08:08:28 51°17.815 2°51.858 8.4381 3.296966 29.812917 -2.871232
2007-03-30 08:08:32 51°17.828 2°51.847 8.4342 3.297173 29.813385 -2.871232
2007-03-30 08:08:38 51°17.847 2°51.83 8.4286 3.297173 29.813385 -2.871232
2007-03-30 08:08:43 51°17.862 2°51.815 8.4247 3.298932 29.829403 -2.871232
2007-03-30 08:08:48 51°17.877 2°51.798 8.4222 3.303176 29.871913 -2.871232
2007-03-30 08:08:53 51°17.892 2°51.781 8.416 3.298208 29.822949 -2.871232
2007-03-30 08:08:57 51°17.904 2°51.766 8.4167 3.301727 29.860612 -2.871232
2007-03-30 08:09:03 51°17.921 2°51.744 8.4175 3.301727 29.860612 -2.871232
2007-03-30 08:09:08 51°17.935 2°51.725 8.4145 3.306489 29.912346 -2.871232
2007-03-30 08:09:13 51°17.949 2°51.706 8.4131 3.303901 29.89044 -2.871232
2007-03-30 08:09:18 51°17.963 2°51.686 8.4174 3.303901 29.893661 -2.871232
2007-03-30 08:09:23 51°17.977 2°51.666 8.4107 3.305972 29.917635 -2.871232
2007-03-30 08:09:28 51°17.99 2°51.646 8.4108 3.299657 29.858368 -2.871232
2007-03-30 08:09:33 51°18.005 2°51.626 8.407 3.30856 29.950035 -2.871232
2007-03-30 08:09:38 51°18.018 2°51.606 8.4084 3.30856 29.950035 -2.871232
2007-03-30 08:09:43 51°18.032 2°51.587 8.4092 3.30328 29.898713 -2.871232
2007-03-30 08:09:48 51°18.046 2°51.567 8.4038 3.300278 29.868618 -2.871232
2007-03-30 08:09:52 51°18.058 2°51.551 8.4026 3.310113 29.968029 -2.871232
2007-03-30 08:09:57 51°18.072 2°51.531 8.399 3.307214 29.941383 -2.871232
2007-03-30 08:10:03 51°18.089 2°51.507 8.4001 3.310837 29.979337 -2.871232
2007-03-30 08:10:08 51°18.103 2°51.488 8.3993 3.310837 29.979337 -2.871232
2007-03-30 08:10:12 51°18.114 2°51.472 8.3967 3.299036 29.860995 -2.871232
2007-03-30 08:10:17 51°18.128 2°51.452 8.39 3.310423 29.9768 -2.871232
2007-03-30 08:10:23 51°18.145 2°51.428 8.3883 3.304109 29.915079 -2.871232
2007-03-30 08:10:28 51°18.159 2°51.408 8.3911 3.311251 29.988341 -2.871232
2007-03-30 08:10:33 51°18.173 2°51.389 8.3859 3.313115 30.009464 -2.871232
2007-03-30 08:10:37 51°18.184 2°51.372 8.3876 3.313115 30.009464 -2.871232
2007-03-30 08:10:43 51°18.201 2°51.349 8.3827 3.313322 30.01316 -2.871232
2007-03-30 08:10:48 51°18.215 2°51.329 8.3822 3.308146 29.962841 -2.871232
2007-03-30 08:10:53 51°18.23 2°51.309 8.3799 3.311976 30.00451 -2.871232
2007-03-30 08:10:58 51°18.243 2°51.289 8.378 3.316013 30.047463 -2.871232
2007-03-30 08:11:02 51°18.255 2°51.273 8.376 3.315289 30.041809 -2.871232
2007-03-30 08:11:08 51°18.272 2°51.249 8.3748 3.315289 30.041809 -2.871232
2007-03-30 08:11:13 51°18.286 2°51.229 8.3742 3.310216 29.991702 -2.871232
2007-03-30 08:11:18 51°18.3 2°51.209 8.3733 3.319326 30.086401 -2.871232
2007-03-30 08:11:22 51°18.311 2°51.193 8.374 3.323053 30.125454 -2.871232
2007-03-30 08:11:27 51°18.325 2°51.173 8.3693 3.324192 30.138518 -2.871232
2007-03-30 08:11:33 51°18.342 2°51.149 8.3675 3.323674 30.134945 -2.871232
2007-03-30 08:11:38 51°18.356 2°51.129 8.3665 3.323674 30.134945 -2.871232
2007-03-30 08:11:43 51°18.37 2°51.109 8.365 3.325538 30.156106 -2.871232
2007-03-30 08:11:48 51°18.384 2°51.089 8.3654 3.320051 30.101799 -2.871232
2007-03-30 08:11:53 51°18.398 2°51.069 8.3675 3.325641 30.158774 -2.871232
2007-03-30 08:11:58 51°18.412 2°51.049 8.3629 3.32326 30.136478 -2.871232
2007-03-30 08:12:03 51°18.426 2°51.028 8.3678 3.32326 30.136478 -2.871232
2007-03-30 08:12:08 51°18.441 2°51.008 8.3629 3.32502 30.156602 -2.871232
2007-03-30 08:12:12 51°18.452 2°50.992 8.3592 3.324502 30.152215 -2.871232
2007-03-30 08:12:18 51°18.469 2°50.968 8.3597 3.321914 30.127022 -2.871232
2007-03-30 08:12:23 51°18.483 2°50.948 8.3569 3.321086 30.119513 -2.871232
2007-03-30 08:12:28 51°18.498 2°50.928 8.3552 3.31943 30.103684 -2.871232
2007-03-30 08:12:32 51°18.509 2°50.912 8.359 3.31943 30.103684 -2.871232
2007-03-30 08:12:38 51°18.526 2°50.888 8.3623 3.320983 30.120099 -2.871232
2007-03-30 08:12:43 51°18.54 2°50.868 8.3589 3.318395 30.094907 -2.871232
2007-03-30 08:12:48 51°18.554 2°50.848 8.3602 3.323157 30.145201 -2.871232
2007-03-30 08:12:53 51°18.568 2°50.828 8.3582 3.324088 30.157008 -2.871232
2007-03-30 08:12:57 51°18.58 2°50.813 8.3617 3.321915 30.13597 -2.871232
2007-03-30 08:13:03 51°18.597 2°50.788 8.3595 3.316635 30.082098 -2.871232
2007-03-30 08:13:08 51°18.611 2°50.769 8.3599 3.316635 30.082098 -2.871232
2007-03-30 08:13:13 51°18.625 2°50.749 8.3595 3.321914 30.134343 -2.871232
2007-03-30 08:13:17 51°18.636 2°50.733 8.359 3.318188 30.096889 -2.871232
2007-03-30 08:13:22 51°18.65 2°50.713 8.3642 3.317567 30.090648 -2.871232
2007-03-30 08:13:28 51°18.666 2°50.69 8.3607 3.313115 30.045922 -2.871232
2007-03-30 08:13:33 51°18.679 2°50.672 8.3665 3.315393 30.068804 -2.871232
2007-03-30 08:13:37 51°18.689 2°50.659 8.3676 3.315393 30.068804 -2.871232
2007-03-30 08:13:43 51°18.703 2°50.639 8.3687 3.31384 30.054014 -2.871232
2007-03-30 08:13:48 51°18.715 2°50.624 8.3696 3.315393 30.069616 -2.871232
2007-03-30 08:13:53 51°18.726 2°50.609 8.3654 3.3156 30.070884 -2.871232
2007-03-30 08:13:57 51°18.735 2°50.598 8.3665 3.313115 30.0443 -2.871232
2007-03-30 08:14:03 51°18.749 2°50.582 8.3658 3.312183 30.033319 -2.871232
2007-03-30 08:14:08 51°18.76 2°50.569 8.3669 3.312183 30.033319 -2.871232
2007-03-30 08:14:13 51°18.771 2°50.556 8.3684 3.314254 30.051683 -2.871232
2007-03-30 08:14:18 51°18.781 2°50.544 8.3653 3.31239 30.032155 -2.871232
2007-03-30 08:14:22 51°18.788 2°50.533 8.3652 3.31384 30.046713 -2.871232
2007-03-30 08:14:28 51°18.797 2°50.513 8.3673 3.313736 30.045673 -2.871232
2007-03-30 08:14:33 51°18.803 2°50.496 8.3659 3.313736 30.045673 -2.871232
2007-03-30 08:14:38 51°18.808 2°50.478 8.3663 3.313115 30.040245 -2.871232
2007-03-30 08:14:42 51°18.812 2°50.463 8.365 3.314668 30.055843 -2.871232
2007-03-30 08:14:48 51°18.815 2°50.44 8.3676 3.310838 30.01818 -2.871232
2007-03-30 08:14:53 51°18.818 2°50.42 8.368 3.312287 30.034358 -2.871232
2007-03-30 08:14:58 51°18.82 2°50.4 8.3671 3.307939 29.990688 -2.871232
2007-03-30 08:15:02 51°18.821 2°50.384 8.368 3.307836 29.989649 -2.871232
2007-03-30 08:15:08 51°18.823 2°50.36 8.369 3.307836 29.989649 -2.871232
2007-03-30 08:15:13 51°18.825 2°50.339 8.3669 3.307422 29.9863 -2.871232
2007-03-30 08:15:18 51°18.826 2°50.318 8.3692 3.309078 30.002935 -2.871232
2007-03-30 08:15:23 51°18.828 2°50.298 8.3663 3.309285 30.004204 -2.871232
2007-03-30 08:15:28 51°18.83 2°50.277 8.3663 3.306076 29.971166 -2.871232
2007-03-30 08:15:33 51°18.832 2°50.257 8.3706 3.305869 29.968278 -2.871232
2007-03-30 08:15:37 51°18.834 2°50.24 8.3744 3.305869 29.968278 -2.871232
2007-03-30 08:15:42 51°18.836 2°50.219 8.3734 3.30473 29.956035 -2.871232
2007-03-30 08:15:48 51°18.839 2°50.195 8.3763 3.303281 29.941484 -2.871232
2007-03-30 08:15:53 51°18.842 2°50.174 8.3797 3.305662 29.96539 -2.871232
2007-03-30 08:15:58 51°18.845 2°50.154 8.3803 3.303695 29.94645 -2.871232
2007-03-30 08:16:02 51°18.848 2°50.137 8.3816 3.303281 29.940676 -2.871232
2007-03-30 08:16:08 51°18.852 2°50.113 8.3844 3.303281 29.940676 -2.871232
2007-03-30 08:16:13 51°18.856 2°50.093 8.3824 3.303591 29.942178 -2.871232
2007-03-30 08:16:17 51°18.859 2°50.077 8.3866 3.305248 29.95719 -2.871232
2007-03-30 08:16:23 51°18.864 2°50.054 8.387 3.305351 29.956612 -2.871232
2007-03-30 08:16:28 51°18.869 2°50.034 8.3874 3.303281 29.933405 -2.871232
2007-03-30 08:16:33 51°18.873 2°50.016 8.3895 3.304109 29.940101 -2.871232
2007-03-30 08:16:38 51°18.877 2°49.999 8.3889 3.304109 29.940101 -2.871232
2007-03-30 08:16:43 51°18.88 2°49.982 8.3909 3.303798 29.935369 -2.871232
2007-03-30 08:16:48 51°18.881 2°49.965 8.3928 3.305248 29.948299 -2.871232
2007-03-30 08:16:53 51°18.881 2°49.95 8.3909 3.303074 29.924866 -2.871232
2007-03-30 08:16:58 51°18.881 2°49.935 8.3929 3.305972 29.952339 -2.871232
2007-03-30 08:17:03 51°18.879 2°49.921 8.3918 3.305662 29.949223 -2.871232
2007-03-30 08:17:08 51°18.878 2°49.908 8.396 3.305662 29.949223 -2.871232
2007-03-30 08:17:12 51°18.876 2°49.898 8.3957 3.301935 29.911826 -2.871232
2007-03-30 08:17:17 51°18.874 2°49.887 8.399 3.304523 29.936987 -2.871232
2007-03-30 08:17:23 51°18.871 2°49.873 8.4002 3.304109 29.932832 -2.871232
2007-03-30 08:17:28 51°18.869 2°49.863 8.4009 3.305455 29.945529 -2.871232
2007-03-30 08:17:33 51°18.866 2°49.853 8.3999 3.305455 29.945529 -2.871232
2007-03-30 08:17:37 51°18.864 2°49.845 8.3997 3.305662 29.946799 -2.871232
2007-03-30 08:17:43 51°18.861 2°49.834 8.4008 3.3009 29.897406 -2.871232
2007-03-30 08:17:48 51°18.859 2°49.825 8.3998 3.305351 29.940452 -2.871232
2007-03-30 08:17:53 51°18.857 2°49.817 8.3992 3.304212 29.927412 -2.871232
2007-03-30 08:17:57 51°18.856 2°49.811 8.4012 3.303798 29.921644 -2.871232
2007-03-30 08:18:02 51°18.855 2°49.805 8.4005 3.303798 29.921644 -2.871232
2007-03-30 08:18:08 51°18.853 2°49.797 8.3981 3.304212 29.924991 -2.871232
2007-03-30 08:18:13 51°18.852 2°49.792 8.401 3.304523 29.9273 -2.871232
2007-03-30 08:18:18 51°18.851 2°49.788 8.399 3.303281 29.914838 -2.871232
2007-03-30 08:18:22 51°18.851 2°49.785 8.3996 3.305972 29.941839 -2.871232
2007-03-30 08:18:28 51°18.85 2°49.782 8.3993 3.302556 29.90757 -2.871232
2007-03-30 08:18:33 51°18.849 2°49.78 8.3991 3.306075 29.94207 -2.871232
2007-03-30 08:18:38 51°18.848 2°49.779 8.3994 3.306075 29.94207 -2.871232
2007-03-30 08:18:42 51°18.847 2°49.779 8.4015 3.306904 29.951186 -2.871232
2007-03-30 08:18:47 51°18.846 2°49.779 8.3981 3.300589 29.887036 -2.871232
2007-03-30 08:18:53 51°18.845 2°49.778 8.3991 3.305454 29.936646 -2.871232
2007-03-30 08:18:58 51°18.843 2°49.778 8.3987 3.306697 29.949109 -2.871232
2007-03-30 08:19:03 51°18.842 2°49.777 8.3998 3.30504 29.932492 -2.871232
2007-03-30 08:19:08 51°18.842 2°49.777 8.3994 3.30504 29.932492 -2.871232
2007-03-30 08:19:13 51°18.84 2°49.776 8.3988 3.30649 29.947031 -2.871232
2007-03-30 08:19:18 51°18.839 2°49.776 8.4 3.308353 29.965726 -2.871232
2007-03-30 08:19:23 51°18.838 2°49.775 8.4004 3.305144 29.933531 -2.871232
2007-03-30 08:19:28 51°18.837 2°49.774 8.3984 3.303488 29.916915 -2.871232
2007-03-30 08:19:32 51°18.836 2°49.773 8.3994 3.304212 29.924184 -2.871232
2007-03-30 08:19:37 51°18.835 2°49.773 8.3939 3.304212 29.924184 -2.871232
2007-03-30 08:19:43 51°18.834 2°49.771 8.3932 3.308146 29.963649 -2.871232
2007-03-30 08:19:48 51°18.833 2°49.77 8.393 3.309595 29.978999 -2.871232
2007-03-30 08:19:53 51°18.832 2°49.769 8.3953 3.310423 29.985692 -2.871232
2007-03-30 08:19:57 51°18.831 2°49.768 8.3972 3.308456 29.965149 -2.871232
2007-03-30 08:20:03 51°18.83 2°49.767 8.3984 3.308456 29.965149 -2.871232
2007-03-30 08:20:08 51°18.828 2°49.766 8.3982 3.308974 29.967918 -2.871232
2007-03-30 08:20:13 51°18.827 2°49.764 8.399 3.314253 30.019271 -2.871232
2007-03-30 08:20:17 51°18.826 2°49.763 8.402 3.315289 30.030469 -2.871232
2007-03-30 08:20:23 51°18.825 2°49.761 8.3999 3.321293 30.090729 -2.871232
2007-03-30 08:20:28 51°18.824 2°49.76 8.4003 3.318498 30.061864 -2.871232
2007-03-30 08:20:33 51°18.823 2°49.758 8.4018 3.315392 30.029888 -2.871232
2007-03-30 08:20:38 51°18.822 2°49.757 8.4035 3.315392 30.029888 -2.871232
2007-03-30 08:20:42 51°18.821 2°49.755 8.4048 3.316531 30.040505 -2.871232
2007-03-30 08:20:48 51°18.82 2°49.754 8.4051 3.317566 30.050893 -2.871232
2007-03-30 08:20:53 51°18.819 2°49.752 8.4044 3.317359 30.048005 -2.871232
2007-03-30 08:20:57 51°18.819 2°49.751 8.4059 3.317048 30.044079 -2.871232
2007-03-30 08:21:03 51°18.817 2°49.749 8.4062 3.317048 30.044079 -2.871232
2007-03-30 08:21:08 51°18.816 2°49.747 8.4139 3.313839 30.01188 -2.871232
2007-03-30 08:21:12 51°18.815 2°49.745 8.4117 3.316531 30.038075 -2.871232
2007-03-30 08:21:18 51°18.814 2°49.743 8.4184 3.320465 30.075929 -2.871232
2007-03-30 08:21:23 51°18.813 2°49.741 8.4092 3.317255 30.042107 -2.871232
2007-03-30 08:21:28 51°18.813 2°49.739 8.4131 3.317048 30.04003 -2.871232
2007-03-30 08:21:33 51°18.812 2°49.737 8.4093 3.317048 30.04003 -2.871232
2007-03-30 08:21:38 51°18.811 2°49.736 8.4192 3.316013 30.028834 -2.871232
2007-03-30 08:21:43 51°18.81 2°49.734 8.4109 3.317152 30.039449 -2.871232
2007-03-30 08:21:48 51°18.809 2°49.732 8.4194 3.312701 29.993178 -2.871232
2007-03-30 08:21:53 51°18.808 2°49.73 8.4181 3.316117 30.026635 -2.871232
2007-03-30 08:21:57 51°18.808 2°49.728 8.4134 3.31239 29.988446 -2.871232
2007-03-30 08:22:02 51°18.807 2°49.726 8.4135 3.306903 29.933427 -2.871232
2007-03-30 08:22:08 51°18.806 2°49.724 8.4141 3.306903 29.933427 -2.871232
2007-03-30 08:22:13 51°18.805 2°49.722 8.4273 3.313839 30.001365 -2.871232
2007-03-30 08:22:18 51°18.804 2°49.72 8.4264 3.31063 29.968374 -2.871232
2007-03-30 08:22:23 51°18.803 2°49.718 8.4189 3.305454 29.915671 -2.871232
2007-03-30 08:22:28 51°18.803 2°49.716 8.4244 3.307732 29.93931 -2.871232
2007-03-30 08:22:33 51°18.802 2°49.713 8.4311 3.305454 29.917284 -2.871232
2007-03-30 08:22:38 51°18.801 2°49.711 8.4413 3.305454 29.917284 -2.871232
2007-03-30 08:22:43 51°18.8 2°49.709 8.4525 3.309077 29.953611 -2.871232
2007-03-30 08:22:48 51°18.799 2°49.707 8.4485 3.301417 29.874397 -2.871232
2007-03-30 08:22:53 51°18.798 2°49.705 8.4489 3.311148 29.970334 -2.871232
2007-03-30 08:22:58 51°18.798 2°49.703 8.4457 3.311148 29.968719 -2.871232
2007-03-30 08:23:02 51°18.797 2°49.702 8.4473 3.311148 29.968719 -2.871232
2007-03-30 08:23:08 51°18.796 2°49.699 8.4469 3.31622 30.017156 -2.871232
2007-03-30 08:23:13 51°18.796 2°49.697 8.4439 3.31798 30.029141 -2.871232
2007-03-30 08:23:18 51°18.795 2°49.695 8.4436 3.321914 30.0613 -2.871232
2007-03-30 08:23:23 51°18.795 2°49.693 8.4459 3.324294 30.081122 -2.871232
2007-03-30 08:23:28 51°18.794 2°49.691 8.4463 3.321085 30.048141 -2.871232
2007-03-30 08:23:33 51°18.793 2°49.689 8.4428 3.321085 30.047332 -2.871232
2007-03-30 08:23:38 51°18.793 2°49.687 8.447 3.321085 30.047332 -2.871232
2007-03-30 08:23:43 51°18.793 2°49.686 8.441 3.325847 30.09345 -2.871232
2007-03-30 08:23:48 51°18.792 2°49.684 8.4339 3.324502 30.080768 -2.871232
2007-03-30 08:23:53 51°18.792 2°49.682 8.4428 3.326675 30.102563 -2.871232
2007-03-30 08:23:57 51°18.792 2°49.68 8.4337 3.320361 30.03926 -2.871232
2007-03-30 08:24:03 51°18.791 2°49.677 8.4345 3.320361 30.03926 -2.871232
2007-03-30 08:24:08 51°18.79 2°49.675 8.4386 3.320361 30.03926 -2.871232
2007-03-30 08:24:13 51°18.789 2°49.673 8.4343 3.322017 30.056671 -2.871232
2007-03-30 08:24:17 51°18.789 2°49.671 8.4351 3.318394 30.021971 -2.871232
2007-03-30 08:24:23 51°18.788 2°49.669 8.4365 3.31094 29.949697 -2.871232
2007-03-30 08:24:28 51°18.787 2°49.667 8.4378 3.316945 30.012294 -2.871232
2007-03-30 08:24:32 51°18.787 2°49.665 8.4282 3.315806 30.002496 -2.871232
2007-03-30 08:24:37 51°18.786 2°49.663 8.4309 3.315806 30.002496 -2.871232
2007-03-30 08:24:43 51°18.786 2°49.66 8.43 3.314771 29.991311 -2.871232
2007-03-30 08:24:48 51°18.785 2°49.658 8.4375 3.307731 29.922377 -2.871232
2007-03-30 08:24:53 51°18.785 2°49.657 8.4253 3.313735 29.98255 -2.871232
2007-03-30 08:24:57 51°18.784 2°49.655 8.4352 3.311769 29.96203 -2.871232
2007-03-30 08:25:03 51°18.784 2°49.653 8.4291 3.311769 29.96203 -2.871232
2007-03-30 08:25:08 51°18.783 2°49.651 8.4263 3.314978 29.995002 -2.871232
2007-03-30 08:25:13 51°18.783 2°49.649 8.4306 3.311147 29.957418 -2.871232
2007-03-30 08:25:18 51°18.783 2°49.646 8.4288 3.314771 29.994543 -2.871232
2007-03-30 08:25:23 51°18.782 2°49.644 8.4367 3.309491 29.944045 -2.871232
2007-03-30 08:25:28 51°18.782 2°49.643 8.4302 3.313632 29.983935 -2.871232
2007-03-30 08:25:33 51°18.781 2°49.641 8.4331 3.312493 29.971714 -2.871232
2007-03-30 08:25:38 51°18.781 2°49.639 8.4276 3.312493 29.971714 -2.871232
2007-03-30 08:25:43 51°18.78 2°49.637 8.4296 3.312804 29.976441 -2.871232
2007-03-30 08:25:48 51°18.78 2°49.635 8.4339 3.310733 29.957303 -2.871232
2007-03-30 08:25:52 51°18.78 2°49.633 8.443 3.308352 29.932632 -2.871232
2007-03-30 08:25:58 51°18.78 2°49.631 8.4392 3.315495 30.003423 -2.871232
2007-03-30 08:26:03 51°18.78 2°49.629 8.4428 3.313218 29.979785 -2.871232
2007-03-30 08:26:08 51°18.78 2°49.627 8.4504 3.313218 29.979785 -2.871232
2007-03-30 08:26:12 51°18.781 2°49.625 8.4518 3.314357 29.992815 -2.871232
2007-03-30 08:26:18 51°18.782 2°49.623 8.4308 3.314046 29.989702 -2.871232
2007-03-30 08:26:23 51°18.783 2°49.621 8.4323 3.312907 29.975864 -2.871232
2007-03-30 08:26:28 51°18.785 2°49.619 8.4342 3.315495 29.998575 -2.871232
2007-03-30 08:26:33 51°18.788 2°49.618 8.436 3.319636 30.037658 -2.871232
2007-03-30 08:26:37 51°18.79 2°49.617 8.4341 3.319636 30.037658 -2.871232
2007-03-30 08:26:43 51°18.794 2°49.617 8.4366 3.317566 30.013671 -2.871232
2007-03-30 08:26:48 51°18.797 2°49.618 8.4296 3.317566 30.013671 -2.871232
2007-03-30 08:26:53 51°18.801 2°49.62 8.4283 3.315392 29.996729 -2.871232
2007-03-30 08:26:58 51°18.804 2°49.623 8.4448 3.315185 29.99627 -2.871232
2007-03-30 08:27:03 51°18.808 2°49.626 8.4216 3.314667 29.993505 -2.871232
2007-03-30 08:27:08 51°18.811 2°49.631 8.419 3.314667 29.993505 -2.871232
2007-03-30 08:27:13 51°18.815 2°49.637 8.4256 3.312183 29.968601 -2.871232
2007-03-30 08:27:18 51°18.819 2°49.646 8.4188 3.31446 29.990622 -2.871232
2007-03-30 08:27:22 51°18.822 2°49.653 8.4223 3.315392 29.999961 -2.871232
2007-03-30 08:27:28 51°18.827 2°49.666 8.42 3.312183 29.969408 -2.871232
2007-03-30 08:27:33 51°18.832 2°49.677 8.4141 3.315081 30.001696 -2.871232
2007-03-30 08:27:38 51°18.838 2°49.689 8.4164 3.315081 30.001696 -2.871232
2007-03-30 08:27:43 51°18.844 2°49.701 8.4159 3.309491 29.947271 -2.871232
2007-03-30 08:27:48 51°18.851 2°49.713 8.4179 3.313839 29.993282 -2.871232
2007-03-30 08:27:53 51°18.858 2°49.725 8.416 3.313011 29.987402 -2.871232
2007-03-30 08:27:58 51°18.866 2°49.739 8.4143 3.314771 30.005857 -2.871232
2007-03-30 08:28:03 51°18.874 2°49.753 8.4242 3.31063 29.964337 -2.871232
2007-03-30 08:28:08 51°18.883 2°49.768 8.4247 3.31063 29.964337 -2.871232
2007-03-30 08:28:12 51°18.89 2°49.781 8.4188 3.312804 29.988558 -2.871232
2007-03-30 08:28:18 51°18.901 2°49.802 8.4241 3.303073 29.892609 -2.871232
2007-03-30 08:28:23 51°18.911 2°49.82 8.4199 3.311044 29.972526 -2.871232
2007-03-30 08:28:28 51°18.921 2°49.839 8.4174 3.310112 29.963184 -2.871232
2007-03-30 08:28:32 51°18.929 2°49.855 8.4173 3.310112 29.963184 -2.871232
2007-03-30 08:28:38 51°18.941 2°49.879 8.4141 3.311665 29.977947 -2.871232
2007-03-30 08:28:43 51°18.952 2°49.899 8.4054 3.310009 29.959724 -2.871232
2007-03-30 08:28:48 51°18.963 2°49.92 8.4071 3.307214 29.931701 -2.871232
2007-03-30 08:28:53 51°18.974 2°49.941 8.4069 3.304626 29.905757 -2.871232
2007-03-30 08:28:57 51°18.983 2°49.957 8.405 3.309595 29.955572 -2.871232
2007-03-30 08:29:03 51°18.996 2°49.983 8.3967 3.307939 29.939773 -2.871232
2007-03-30 08:29:08 51°19.007 2°50.004 8.3964 3.307939 29.939773 -2.871232
2007-03-30 08:29:13 51°19.019 2°50.025 8.397 3.311251 29.973795 -2.871232
2007-03-30 08:29:18 51°19.03 2°50.047 8.3917 3.31239 29.988446 -2.871232
2007-03-30 08:29:22 51°19.039 2°50.064 8.3945 3.306489 29.931695 -2.871232
2007-03-30 08:29:28 51°19.052 2°50.089 8.39 3.306489 29.934923 -2.871232
2007-03-30 08:29:33 51°19.064 2°50.111 8.3868 3.303901 29.910583 -2.871232
2007-03-30 08:29:37 51°19.073 2°50.128 8.3802 3.303901 29.910583 -2.871232
2007-03-30 08:29:43 51°19.086 2°50.154 8.385 3.309388 29.968032 -2.871232
2007-03-30 08:29:48 51°19.098 2°50.175 8.3856 3.313943 30.016155 -2.871232
2007-03-30 08:29:53 51°19.109 2°50.197 8.3867 3.297484 29.85428 -2.871232
2007-03-30 08:29:58 51°19.12 2°50.219 8.3858 3.305558 29.937685 -2.871232
2007-03-30 08:30:03 51°19.131 2°50.24 8.3846 3.305558 29.937685 -2.871232
2007-03-30 08:30:08 51°19.143 2°50.261 8.3837 3.302556 29.909989 -2.871232
2007-03-30 08:30:13 51°19.155 2°50.282 8.3814 3.320051 30.087996 -2.871232
2007-03-30 08:30:18 51°19.166 2°50.304 8.3864 3.3215 30.10336 -2.871232
2007-03-30 08:30:23 51°19.177 2°50.325 8.3848 3.3215 30.10336 -2.871232
2007-03-30 08:30:28 51°19.189 2°50.347 8.382 3.322949 30.119538 -2.871232
2007-03-30 08:30:33 51°19.2 2°50.368 8.3799 3.322949 30.119538 -2.871232
2007-03-30 08:30:38 51°19.212 2°50.39 8.378 3.323674 30.126003 -2.871232
2007-03-30 08:30:42 51°19.221 2°50.407 8.3782 3.322846 30.117686 -2.871232
2007-03-30 08:30:48 51°19.235 2°50.433 8.3768 3.322432 30.115153 -2.871232
2007-03-30 08:30:53 51°19.246 2°50.454 8.3726 3.322639 30.118857 -2.871232
2007-03-30 08:30:58 51°19.258 2°50.476 8.3718 3.322742 30.119897 -2.871232
2007-03-30 08:31:03 51°19.269 2°50.497 8.3699 3.322225 30.115511 -2.871232
2007-03-30 08:31:08 51°19.281 2°50.519 8.3683 3.322225 30.115511 -2.871232
2007-03-30 08:31:13 51°19.292 2°50.54 8.3634 3.318912 30.083866 -2.871232
2007-03-30 08:31:18 51°19.303 2°50.562 8.3615 3.320983 30.106283 -2.871232
2007-03-30 08:31:23 51°19.315 2°50.583 8.3581 3.323053 30.128705 -2.871232
2007-03-30 08:31:28 51°19.326 2°50.604 8.357 3.324502 30.144892 -2.871232
2007-03-30 08:31:33 51°19.338 2°50.625 8.3519 3.324606 30.148372 -2.871232
2007-03-30 08:31:38 51°19.35 2°50.647 8.3484 3.324606 30.148372 -2.871232
2007-03-30 08:31:42 51°19.359 2°50.664 8.3436 3.325848 30.161668 -2.871232
2007-03-30 08:31:48 51°19.372 2°50.688 8.3388 3.321604 30.121462 -2.871232
2007-03-30 08:31:53 51°19.382 2°50.707 8.334 3.32678 30.175917 -2.871232
2007-03-30 08:31:58 51°19.392 2°50.725 8.3349 3.324399 30.15443 -2.871232
2007-03-30 08:32:03 51°19.4 2°50.742 8.3333 3.324399 30.15443 -2.871232
2007-03-30 08:32:08 51°19.409 2°50.757 8.3293 3.325848 30.172254 -2.871232
2007-03-30 08:32:13 51°19.416 2°50.772 8.3345 3.323881 30.156555 -2.871232
2007-03-30 08:32:18 51°19.423 2°50.786 8.3277 3.324089 30.161894 -2.871232
2007-03-30 08:32:23 51°19.43 2°50.799 8.3301 3.32295 30.155332 -2.871232
2007-03-30 08:32:28 51°19.436 2°50.812 8.3293 3.320879 30.137771 -2.871232
2007-03-30 08:32:33 51°19.442 2°50.824 8.3304 3.320879 30.137771 -2.871232
2007-03-30 08:32:38 51°19.448 2°50.835 8.3289 3.319534 30.127495 -2.871232
2007-03-30 08:32:43 51°19.452 2°50.845 8.3312 3.317877 30.114095 -2.871232
2007-03-30 08:32:48 51°19.458 2°50.855 8.3282 3.32119 30.149038 -2.871232
2007-03-30 08:32:53 51°19.462 2°50.865 8.3292 3.320155 30.139441 -2.871232
2007-03-30 08:32:58 51°19.467 2°50.874 8.3327 3.320258 30.141296 -2.871232
2007-03-30 08:33:03 51°19.471 2°50.883 8.3329 3.32088 30.147544 -2.871232
2007-03-30 08:33:08 51°19.475 2°50.891 8.3306 3.32088 30.147544 -2.871232
2007-03-30 08:33:12 51°19.478 2°50.898 8.3345 3.321915 30.159586 -2.871232
2007-03-30 08:33:17 51°19.482 2°50.905 8.3357 3.321708 30.157503 -2.871232
2007-03-30 08:33:23 51°19.486 2°50.914 8.331 3.323157 30.172898 -2.871232
2007-03-30 08:33:28 51°19.489 2°50.921 8.3315 3.323468 30.175207 -2.871232
2007-03-30 08:33:33 51°19.492 2°50.928 8.3308 3.324296 30.182723 -2.871232
2007-03-30 08:33:37 51°19.495 2°50.933 8.3346 3.324296 30.182723 -2.871232
2007-03-30 08:33:43 51°19.497 2°50.941 8.3319 3.32471 30.186073 -2.871232
2007-03-30 08:33:48 51°19.5 2°50.948 8.3286 3.32471 30.185257 -2.871232
2007-03-30 08:33:53 51°19.501 2°50.954 8.3297 3.322122 30.157594 -2.871232
2007-03-30 08:33:58 51°19.503 2°50.96 8.3308 3.326056 30.198796 -2.871232
2007-03-30 08:34:02 51°19.504 2°50.964 8.3304 3.326056 30.198796 -2.871232
2007-03-30 08:34:08 51°19.506 2°50.971 8.328 3.325849 30.196713 -2.871232
2007-03-30 08:34:13 51°19.507 2°50.976 8.3293 3.325435 30.193363 -2.871232
2007-03-30 08:34:18 51°19.508 2°50.982 8.3299 3.324192 30.180866 -2.871232
2007-03-30 08:34:22 51°19.508 2°50.986 8.3284 3.322225 30.161895 -2.871232
2007-03-30 08:34:27 51°19.509 2°50.991 8.3291 3.321915 30.159586 -2.871232
2007-03-30 08:34:33 51°19.51 2°50.998 8.3263 3.321294 30.153338 -2.871232
2007-03-30 08:34:38 51°19.511 2°51.004 8.3306 3.321294 30.153338 -2.871232
2007-03-30 08:34:43 51°19.511 2°51.01 8.3288 3.32295 30.170815 -2.871232
2007-03-30 08:34:48 51°19.512 2°51.016 8.3262 3.322225 30.16434 -2.871232
2007-03-30 08:34:52 51°19.513 2°51.021 8.3244 3.318602 30.128708 -2.871232
2007-03-30 08:34:58 51°19.514 2°51.029 8.3249 3.321915 30.162846 -2.871232
2007-03-30 08:35:03 51°19.514 2°51.035 8.326 3.322122 30.164929 -2.871232
2007-03-30 08:35:08 51°19.515 2°51.041 8.3213 3.322122 30.164929 -2.871232
2007-03-30 08:35:13 51°19.516 2°51.048 8.3245 3.319327 30.136812 -2.871232
2007-03-30 08:35:18 51°19.517 2°51.054 8.3278 3.320466 30.149081 -2.871232
2007-03-30 08:35:23 51°19.518 2°51.061 8.3278 3.320259 30.147813 -2.871232
2007-03-30 08:35:28 51°19.519 2°51.067 8.3235 3.321915 30.165292 -2.871232
2007-03-30 08:35:32 51°19.52 2°51.073 8.3255 3.321915 30.165292 -2.871232
2007-03-30 08:35:38 51°19.521 2°51.081 8.3224 3.32119 30.158817 -2.871232
2007-03-30 08:35:43 51°19.522 2°51.089 8.3251 3.32088 30.155692 -2.871232
2007-03-30 08:35:48 51°19.523 2°51.096 8.3229 3.320362 30.150485 -2.871232
2007-03-30 08:35:53 51°19.525 2°51.103 8.3248 3.321397 30.159269 -2.871232
2007-03-30 08:35:57 51°19.526 2°51.11 8.3239 3.319741 30.142606 -2.871232
2007-03-30 08:36:03 51°19.528 2°51.119 8.3199 3.320259 30.148628 -2.871232
2007-03-30 08:36:08 51°19.529 2°51.127 8.3215 3.320259 30.148628 -2.871232
2007-03-30 08:36:13 51°19.531 2°51.135 8.3209 3.31943 30.141111 -2.871232
2007-03-30 08:36:18 51°19.533 2°51.143 8.322 3.320983 30.156734 -2.871232
2007-03-30 08:36:23 51°19.535 2°51.151 8.3199 3.320569 30.152568 -2.871232
2007-03-30 08:36:28 51°19.537 2°51.159 8.322 3.320259 30.150258 -2.871232
2007-03-30 08:36:33 51°19.539 2°51.167 8.322 3.318188 30.130243 -2.871232
2007-03-30 08:36:38 51°19.542 2°51.175 8.3226 3.318188 30.130243 -2.871232
2007-03-30 08:36:43 51°19.544 2°51.183 8.3203 3.320259 30.151073 -2.871232
2007-03-30 08:36:48 51°19.546 2°51.192 8.3221 3.318188 30.131058 -2.871232
2007-03-30 08:36:53 51°19.549 2°51.2 8.3206 3.31912 30.140431 -2.871232
2007-03-30 08:36:58 51°19.551 2°51.208 8.321 3.316014 30.109188 -2.871232
2007-03-30 08:37:03 51°19.554 2°51.216 8.3195 3.317049 30.119602 -2.871232
2007-03-30 08:37:08 51°19.556 2°51.224 8.322 3.317049 30.119602 -2.871232
2007-03-30 08:37:13 51°19.559 2°51.231 8.3203 3.320362 30.152115 -2.871232
2007-03-30 08:37:18 51°19.561 2°51.239 8.3204 3.31353 30.084197 -2.871232
2007-03-30 08:37:23 51°19.563 2°51.246 8.3206 3.319016 30.13939 -2.871232
2007-03-30 08:37:28 51°19.566 2°51.253 8.3226 3.320052 30.149805 -2.871232
2007-03-30 08:37:33 51°19.569 2°51.26 8.3222 3.320052 30.149805 -2.871232
2007-03-30 08:37:38 51°19.571 2°51.267 8.3206 3.319844 30.147722 -2.871232
2007-03-30 08:37:43 51°19.574 2°51.274 8.3208 3.318602 30.136038 -2.871232
2007-03-30 08:37:48 51°19.576 2°51.28 8.3224 3.319637 30.146454 -2.871232
2007-03-30 08:37:53 51°19.579 2°51.287 8.3238 3.319016 30.140204 -2.871232
2007-03-30 08:37:58 51°19.581 2°51.293 8.3208 3.312391 30.073556 -2.871232
2007-03-30 08:38:03 51°19.584 2°51.299 8.319 3.317671 30.126665 -2.871232
2007-03-30 08:38:08 51°19.587 2°51.305 8.322 3.317671 30.126665 -2.871232
2007-03-30 08:38:13 51°19.59 2°51.311 8.3212 3.318706 30.13708 -2.871232
2007-03-30 08:38:18 51°19.593 2°51.317 8.3221 3.314979 30.099588 -2.871232
2007-03-30 08:38:23 51°19.596 2°51.323 8.3249 3.317567 30.124809 -2.871232
2007-03-30 08:38:28 51°19.599 2°51.329 8.3201 3.315704 30.106064 -2.871232
2007-03-30 08:38:33 51°19.602 2°51.335 8.3206 3.314151 30.091258 -2.871232
2007-03-30 08:38:38 51°19.605 2°51.34 8.3185 3.314151 30.091258 -2.871232
2007-03-30 08:38:43 51°19.608 2°51.346 8.3204 3.312805 30.077721 -2.871232
2007-03-30 08:38:48 51°19.611 2°51.351 8.3211 3.317774 30.127706 -2.871232
2007-03-30 08:38:53 51°19.614 2°51.357 8.317 3.317671 30.12585 -2.871232
2007-03-30 08:38:58 51°19.617 2°51.362 8.3193 3.317671 30.12585 -2.871232
2007-03-30 08:39:03 51°19.62 2°51.368 8.3195 3.317256 30.121685 -2.871232
2007-03-30 08:39:08 51°19.623 2°51.373 8.3184 3.317256 30.121685 -2.871232
2007-03-30 08:39:13 51°19.626 2°51.379 8.321 3.316946 30.119375 -2.871232
2007-03-30 08:39:18 51°19.629 2°51.384 8.3195 3.316635 30.11625 -2.871232
2007-03-30 08:39:23 51°19.632 2°51.39 8.3193 3.316532 30.116023 -2.871232
2007-03-30 08:39:28 51°19.634 2°51.395 8.3215 3.316325 30.11394 -2.871232
2007-03-30 08:39:33 51°19.637 2°51.401 8.3185 3.316118 30.111857 -2.871232
2007-03-30 08:39:38 51°19.64 2°51.407 8.3188 3.316118 30.111857 -2.871232
2007-03-30 08:39:43 51°19.643 2°51.412 8.3183 3.316118 30.111857 -2.871232
2007-03-30 08:39:48 51°19.646 2°51.418 8.3195 3.316014 30.110816 -2.871232
2007-03-30 08:39:53 51°19.649 2°51.424 8.321 3.315911 30.109774 -2.871232
2007-03-30 08:39:58 51°19.652 2°51.43 8.3194 3.315807 30.108733 -2.871232
2007-03-30 08:40:03 51°19.655 2°51.435 8.3221 3.315704 30.107692 -2.871232
2007-03-30 08:40:08 51°19.657 2°51.441 8.3212 3.315704 30.107692 -2.871232
2007-03-30 08:40:13 51°19.66 2°51.447 8.3221 3.315704 30.107692 -2.871232
2007-03-30 08:40:18 51°19.663 2°51.453 8.3226 3.315704 30.107692 -2.871232
2007-03-30 08:40:23 51°19.665 2°51.459 8.322 3.315704 30.107692 -2.871232
2007-03-30 08:40:28 51°19.668 2°51.464 8.321 3.315704 30.106878 -2.871232
2007-03-30 08:40:33 51°19.671 2°51.47 8.3214 3.315704 30.106878 -2.871232
2007-03-30 08:40:37 51°19.673 2°51.475 8.3202 3.315704 30.106878 -2.871232
2007-03-30 08:40:43 51°19.676 2°51.482 8.3222 3.315704 30.106064 -2.871232
2007-03-30 08:40:48 51°19.679 2°51.488 8.3227 3.315497 30.103981 -2.871232
2007-03-30 08:40:53 51°19.681 2°51.495 8.3224 3.31529 30.101899 -2.871232
2007-03-30 08:40:58 51°19.683 2°51.501 8.3229 3.314979 30.098775 -2.871232
2007-03-30 08:41:03 51°19.686 2°51.507 8.3238 3.314979 30.098775 -2.871232
2007-03-30 08:41:08 51°19.688 2°51.513 8.3242 3.314772 30.096692 -2.871232
2007-03-30 08:41:13 51°19.69 2°51.519 8.3248 3.314565 30.094609 -2.871232
2007-03-30 08:41:18 51°19.693 2°51.525 8.3226 3.314358 30.092527 -2.871232
2007-03-30 08:41:23 51°19.695 2°51.531 8.3268 3.314151 30.089631 -2.871232
2007-03-30 08:41:28 51°19.698 2°51.537 8.3287 3.314047 30.087776 -2.871232
2007-03-30 08:41:33 51°19.7 2°51.543 8.3278 3.31384 30.085694 -2.871232
2007-03-30 08:41:38 51°19.703 2°51.549 8.3277 3.31384 30.085694 -2.871232
2007-03-30 08:41:42 51°19.705 2°51.554 8.3264 3.313633 30.083612 -2.871232
2007-03-30 08:41:48 51°19.708 2°51.561 8.3272 3.313426 30.081529 -2.871232
2007-03-30 08:41:52 51°19.71 2°51.566 8.3264 3.313323 30.079675 -2.871232
2007-03-30 08:41:58 51°19.714 2°51.572 8.3271 3.313219 30.077821 -2.871232
2007-03-30 08:42:03 51°19.716 2°51.578 8.325 3.313116 30.075967 -2.871232
2007-03-30 08:42:08 51°19.719 2°51.583 8.3238 3.313116 30.075967 -2.871232
2007-03-30 08:42:13 51°19.722 2°51.589 8.3228 3.313116 30.075967 -2.871232
2007-03-30 08:42:17 51°19.725 2°51.593 8.3191 3.313012 30.074113 -2.871232
2007-03-30 08:42:23 51°19.728 2°51.6 8.32 3.313116 30.075154 -2.871232
2007-03-30 08:42:28 51°19.731 2°51.605 8.318 3.313012 30.0733 -2.871232
2007-03-30 08:42:33 51°19.735 2°51.61 8.3176 3.312909 30.073072 -2.871232
2007-03-30 08:42:38 51°19.738 2°51.615 8.3163 3.312909 30.073072 -2.871232
2007-03-30 08:42:43 51°19.742 2°51.62 8.3157 3.312702 30.072615 -2.871232
2007-03-30 08:42:48 51°19.745 2°51.624 8.315 3.312495 30.071346 -2.871232
2007-03-30 08:42:53 51°19.748 2°51.629 8.3119 3.312184 30.070661 -2.871232
2007-03-30 08:42:57 51°19.751 2°51.633 8.3087 3.311873 30.06835 -2.871232
2007-03-30 08:43:03 51°19.755 2°51.639 8.308 3.311873 30.06835 -2.871232
2007-03-30 08:43:08 51°19.759 2°51.643 8.3055 3.31177 30.068935 -2.871232
2007-03-30 08:43:13 51°19.762 2°51.648 8.3018 3.31177 30.069748 -2.871232
2007-03-30 08:43:18 51°19.766 2°51.652 8.3011 3.31177 30.070561 -2.871232
2007-03-30 08:43:23 51°19.77 2°51.657 8.2972 3.311563 30.069291 -2.871232
2007-03-30 08:43:28 51°19.773 2°51.661 8.2937 3.311252 30.067793 -2.871232
2007-03-30 08:43:33 51°19.777 2°51.665 8.2878 3.310838 30.066066 -2.871232
2007-03-30 08:43:38 51°19.781 2°51.67 8.2814 3.310838 30.066066 -2.871232
2007-03-30 08:43:43 51°19.784 2°51.674 8.276 3.310631 30.065609 -2.871232
2007-03-30 08:43:48 51°19.788 2°51.679 8.2704 3.310528 30.067007 -2.871232
2007-03-30 08:43:53 51°19.791 2°51.684 8.2713 3.310631 30.070488 -2.871232
2007-03-30 08:43:58 51°19.794 2°51.688 8.2718 3.310631 30.073741 -2.871232
2007-03-30 08:44:03 51°19.798 2°51.693 8.2722 3.310424 30.074911 -2.871232
2007-03-30 08:44:08 51°19.801 2°51.698 8.2728 3.310424 30.074911 -2.871232
2007-03-30 08:44:12 51°19.803 2°51.702 8.2756 3.31001 30.077253 -2.871232
2007-03-30 08:44:18 51°19.807 2°51.709 8.2781 3.3097 30.078196 -2.871232
2007-03-30 08:44:23 51°19.81 2°51.714 8.2787 3.3097 30.082266 -2.871232
2007-03-30 08:44:28 51°19.813 2°51.719 8.2822 3.310218 30.090736 -2.871232
2007-03-30 08:44:33 51°19.816 2°51.725 8.2812 3.310735 30.096763 -2.871232
2007-03-30 08:44:38 51°19.818 2°51.731 8.2813 3.310735 30.096763 -2.871232
2007-03-30 08:44:43 51°19.821 2°51.736 8.2825 3.311253 30.101975 -2.871232
2007-03-30 08:44:48 51°19.823 2°51.742 8.283 3.31177 30.106373 -2.871232
2007-03-30 08:44:53 51°19.826 2°51.748 8.286 3.312184 30.108914 -2.871232
2007-03-30 08:44:58 51°19.829 2°51.754 8.287 3.312599 30.111454 -2.871232
2007-03-30 08:45:03 51°19.831 2°51.76 8.2871 3.313116 30.115036 -2.871232
2007-03-30 08:45:08 51°19.833 2°51.766 8.2814 3.313116 30.115036 -2.871232
2007-03-30 08:45:13 51°19.836 2°51.772 8.2792 3.313427 30.117348 -2.871232
2007-03-30 08:45:18 51°19.839 2°51.778 8.2742 3.313841 30.121518 -2.871232
2007-03-30 08:45:22 51°19.841 2°51.783 8.2724 3.314255 30.124057 -2.871232
2007-03-30 08:45:28 51°19.844 2°51.791 8.2726 3.314669 30.127412 -2.871232
2007-03-30 08:45:33 51°19.846 2°51.797 8.2728 3.315186 30.131809 -2.871232
2007-03-30 08:45:38 51°19.849 2°51.803 8.2722 3.315186 30.131809 -2.871232
2007-03-30 08:45:43 51°19.851 2°51.809 8.2691 3.315497 30.135751 -2.871232
2007-03-30 08:45:48 51°19.854 2°51.815 8.2648 3.315497 30.138198 -2.871232
2007-03-30 08:45:53 51°19.857 2°51.821 8.2626 3.31529 30.139376 -2.871232
2007-03-30 08:45:58 51°19.859 2°51.827 8.2593 3.315083 30.139738 -2.871232
2007-03-30 08:46:03 51°19.862 2°51.833 8.2566 3.315083 30.140553 -2.871232
2007-03-30 08:46:08 51°19.865 2°51.839 8.2569 3.315083 30.140553 -2.871232
2007-03-30 08:46:13 51°19.868 2°51.845 8.2514 3.31529 30.143455 -2.871232
2007-03-30 08:46:18 51°19.87 2°51.851 8.2467 3.315497 30.147989 -2.871232
2007-03-30 08:46:23 51°19.873 2°51.857 8.2441 3.315497 30.150437 -2.871232
2007-03-30 08:46:28 51°19.876 2°51.862 8.2443 3.315394 30.15266 -2.871232
2007-03-30 08:46:32 51°19.879 2°51.867 8.2437 3.315394 30.15266 -2.871232
2007-03-30 08:46:38 51°19.882 2°51.874 8.2461 3.31529 30.154066 -2.871232
2007-03-30 08:46:43 51°19.885 2°51.879 8.2506 3.315497 30.157786 -2.871232
2007-03-30 08:46:48 51°19.888 2°51.885 8.255 3.315601 30.162097 -2.871232
2007-03-30 08:46:53 51°19.891 2°51.891 8.2547 3.315394 30.163278 -2.871232
2007-03-30 08:46:57 51°19.894 2°51.895 8.2509 3.315394 30.166546 -2.871232
2007-03-30 08:47:03 51°19.898 2°51.902 8.2485 3.315601 30.170268 -2.871232
2007-03-30 08:47:08 51°19.9 2°51.908 8.2528 3.315601 30.170268 -2.871232
2007-03-30 08:47:13 51°19.904 2°51.913 8.2496 3.316119 30.175486 -2.871232
2007-03-30 08:47:18 51°19.907 2°51.919 8.246 3.316843 30.180339 -2.871232
2007-03-30 08:47:23 51°19.91 2°51.924 8.2401 3.317568 30.185191 -2.871232
2007-03-30 08:47:28 51°19.913 2°51.93 8.2342 3.317775 30.186461 -2.871232
2007-03-30 08:47:33 51°19.916 2°51.935 8.2275 3.317775 30.188096 -2.871232
2007-03-30 08:47:38 51°19.919 2°51.941 8.224 3.317775 30.188096 -2.871232
2007-03-30 08:47:42 51°19.922 2°51.945 8.2193 3.318085 30.191227 -2.871232
2007-03-30 08:47:48 51°19.926 2°51.951 8.2156 3.318396 30.195176 -2.871232
2007-03-30 08:47:53 51°19.929 2°51.957 8.2098 3.3185 30.199492 -2.871232
2007-03-30 08:47:58 51°19.932 2°51.962 8.2057 3.318293 30.200677 -2.871232
2007-03-30 08:48:02 51°19.935 2°51.967 8.1974 3.318086 30.204318 -2.871232
2007-03-30 08:48:08 51°19.938 2°51.973 8.1936 3.318086 30.204318 -2.871232
2007-03-30 08:48:13 51°19.941 2°51.979 8.1902 3.318086 30.208412 -2.871232
2007-03-30 08:48:18 51°19.945 2°51.984 8.1872 3.318086 30.214144 -2.871232
2007-03-30 08:48:23 51°19.948 2°51.99 8.1852 3.317982 30.217196 -2.871232
2007-03-30 08:48:28 51°19.951 2°51.996 8.1842 3.317775 30.219204 -2.871232
2007-03-30 08:48:33 51°19.953 2°52.001 8.184 3.317361 30.221581 -2.871232
2007-03-30 08:48:38 51°19.956 2°52.007 8.182 3.317361 30.221581 -2.871232
2007-03-30 08:48:43 51°19.959 2°52.013 8.1824 3.317051 30.224185 -2.871232
2007-03-30 08:48:48 51°19.962 2°52.019 8.1818 3.31674 30.22515 -2.871232
2007-03-30 08:48:53 51°19.965 2°52.025 8.1841 3.316533 30.227981 -2.871232
2007-03-30 08:48:58 51°19.968 2°52.031 8.1864 3.316533 30.230442 -2.871232
2007-03-30 08:49:02 51°19.97 2°52.036 8.1881 3.316533 30.231262 -2.871232
2007-03-30 08:49:08 51°19.973 2°52.043 8.1888 3.316533 30.231262 -2.871232
2007-03-30 08:49:13 51°19.976 2°52.049 8.1913 3.31674 30.234995 -2.871232
2007-03-30 08:49:18 51°19.978 2°52.055 8.1938 3.316947 30.237906 -2.871232
2007-03-30 08:49:23 51°19.981 2°52.061 8.1929 3.317051 30.239773 -2.871232
2007-03-30 08:49:28 51°19.983 2°52.068 8.1956 3.317154 30.239998 -2.871232
2007-03-30 08:49:33 51°19.986 2°52.074 8.1967 3.317051 30.238131 -2.871232
2007-03-30 08:49:37 51°19.988 2°52.079 8.1994 3.317051 30.238131 -2.871232
2007-03-30 08:49:43 51°19.991 2°52.086 8.1992 3.317051 30.23649 -2.871232
2007-03-30 08:49:48 51°19.994 2°52.092 8.202 3.317258 30.23694 -2.871232
2007-03-30 08:49:53 51°19.996 2°52.099 8.2041 3.317569 30.239255 -2.871232
2007-03-30 08:49:58 51°19.998 2°52.105 8.2049 3.317879 30.24075 -2.871232
2007-03-30 08:50:02 51°20.001 2°52.11 8.2074 3.31819 30.242245 -2.871232
2007-03-30 08:50:08 51°20.004 2°52.118 8.2082 3.31819 30.242245 -2.871232
2007-03-30 08:50:13 51°20.006 2°52.124 8.2082 3.3185 30.24374 -2.871232
2007-03-30 08:50:17 51°20.008 2°52.129 8.2142 3.318707 30.244189 -2.871232
2007-03-30 08:50:23 51°20.011 2°52.137 8.2137 3.319121 30.247549 -2.871232
2007-03-30 08:50:28 51°20.013 2°52.143 8.2167 3.319225 30.246953 -2.871232
2007-03-30 08:50:33 51°20.016 2°52.149 8.2168 3.319328 30.245537 -2.871232
2007-03-30 08:50:38 51°20.018 2°52.156 8.2197 3.319328 30.245537 -2.871232
2007-03-30 08:50:43 51°20.02 2°52.162 8.2204 3.319639 30.247031 -2.871232
2007-03-30 08:50:48 51°20.023 2°52.169 8.2213 3.319742 30.246435 -2.871232
2007-03-30 08:50:53 51°20.025 2°52.175 8.224 3.319949 30.246885 -2.871232
2007-03-30 08:50:58 51°20.028 2°52.182 8.2244 3.320363 30.248603 -2.871232
2007-03-30 08:51:03 51°20.03 2°52.188 8.2231 3.320363 30.246963 -2.871232
2007-03-30 08:51:08 51°20.032 2°52.195 8.2249 3.320363 30.246963 -2.871232
2007-03-30 08:51:13 51°20.035 2°52.201 8.2231 3.320467 30.246367 -2.871232
2007-03-30 08:51:18 51°20.037 2°52.207 8.2219 3.320674 30.246816 -2.871232
2007-03-30 08:51:22 51°20.039 2°52.212 8.2238 3.321191 30.250399 -2.871232
2007-03-30 08:51:28 51°20.042 2°52.22 8.2232 3.321605 30.252938 -2.871232
2007-03-30 08:51:33 51°20.045 2°52.226 8.226 3.321813 30.254207 -2.871232
2007-03-30 08:51:38 51°20.047 2°52.233 8.2295 3.321813 30.254207 -2.871232
2007-03-30 08:51:43 51°20.05 2°52.239 8.2274 3.321813 30.254207 -2.871232
2007-03-30 08:51:48 51°20.052 2°52.245 8.2236 3.321709 30.253162 -2.871232
2007-03-30 08:51:53 51°20.055 2°52.251 8.2241 3.321813 30.254207 -2.871232
2007-03-30 08:51:58 51°20.058 2°52.258 8.2248 3.322123 30.257341 -2.871232
2007-03-30 08:52:03 51°20.06 2°52.264 8.2261 3.322848 30.263833 -2.871232
2007-03-30 08:52:08 51°20.063 2°52.27 8.2261 3.322848 30.263833 -2.871232
2007-03-30 08:52:13 51°20.065 2°52.276 8.2274 3.323883 30.27346 -2.871232
2007-03-30 08:52:18 51°20.068 2°52.282 8.2289 3.323986 30.273684 -2.871232
2007-03-30 08:52:22 51°20.07 2°52.287 8.2316 3.322951 30.263237 -2.871232
2007-03-30 08:52:28 51°20.073 2°52.295 8.2339 3.322227 30.256745 -2.871232
2007-03-30 08:52:33 51°20.076 2°52.301 8.2354 3.321812 30.252566 -2.871232
2007-03-30 08:52:38 51°20.079 2°52.307 8.239 3.321812 30.252566 -2.871232
2007-03-30 08:52:42 51°20.081 2°52.312 8.2424 3.321709 30.250702 -2.871232
2007-03-30 08:52:48 51°20.085 2°52.319 8.2445 3.321605 30.249657 -2.871232
2007-03-30 08:52:53 51°20.087 2°52.326 8.2454 3.321709 30.249061 -2.871232
2007-03-30 08:52:58 51°20.09 2°52.332 8.2472 3.322019 30.249735 -2.871232
2007-03-30 08:53:03 51°20.093 2°52.338 8.2494 3.32233 30.251228 -2.871232
2007-03-30 08:53:08 51°20.095 2°52.344 8.2545 3.32233 30.251228 -2.871232
2007-03-30 08:53:13 51°20.098 2°52.35 8.2541 3.322848 30.25399 -2.871232
2007-03-30 08:53:18 51°20.101 2°52.356 8.255 3.323572 30.258841 -2.871232
2007-03-30 08:53:23 51°20.104 2°52.362 8.2547 3.324193 30.262646 -2.871232
2007-03-30 08:53:28 51°20.106 2°52.368 8.2548 3.324504 30.263319 -2.871232
2007-03-30 08:53:33 51°20.109 2°52.374 8.2557 3.325125 30.267943 -2.871232
2007-03-30 08:53:37 51°20.111 2°52.379 8.2585 3.325125 30.267943 -2.871232
2007-03-30 08:53:43 51°20.115 2°52.387 8.2578 3.325746 30.271748 -2.871232
2007-03-30 08:53:48 51°20.118 2°52.393 8.2607 3.326264 30.274508 -2.871232
2007-03-30 08:53:53 51°20.12 2°52.399 8.2598 3.326574 30.27682 -2.871232
2007-03-30 08:53:57 51°20.123 2°52.404 8.2597 3.326574 30.275999 -2.871232
2007-03-30 08:54:03 51°20.126 2°52.411 8.2606 3.326678 30.276223 -2.871232
2007-03-30 08:54:08 51°20.129 2°52.417 8.2609 3.326678 30.276223 -2.871232
2007-03-30 08:54:13 51°20.132 2°52.423 8.262 3.326781 30.275627 -2.871232
2007-03-30 08:54:17 51°20.134 2°52.428 8.2608 3.326885 30.275851 -2.871232
2007-03-30 08:54:23 51°20.137 2°52.435 8.2614 3.327195 30.278163 -2.871232
2007-03-30 08:54:28 51°20.14 2°52.441 8.2599 3.327506 30.280474 -2.871232
2007-03-30 08:54:33 51°20.143 2°52.447 8.258 3.327713 30.281742 -2.871232
2007-03-30 08:54:38 51°20.146 2°52.453 8.2574 3.327713 30.281742 -2.871232
2007-03-30 08:54:43 51°20.149 2°52.46 8.2567 3.328127 30.285097 -2.871232
2007-03-30 08:54:48 51°20.152 2°52.466 8.2563 3.328334 30.287185 -2.871232
2007-03-30 08:54:53 51°20.155 2°52.472 8.2557 3.328438 30.288228 -2.871232
2007-03-30 08:54:58 51°20.157 2°52.478 8.2548 3.328334 30.287185 -2.871232
2007-03-30 08:55:02 51°20.16 2°52.482 8.2547 3.328334 30.287185 -2.871232
2007-03-30 08:55:08 51°20.163 2°52.49 8.2541 3.328334 30.287185 -2.871232
2007-03-30 08:55:13 51°20.166 2°52.496 8.2531 3.328231 30.286961 -2.871232
2007-03-30 08:55:18 51°20.169 2°52.502 8.2502 3.328127 30.287558 -2.871232
2007-03-30 08:55:23 51°20.172 2°52.508 8.2485 3.328127 30.288378 -2.871232
2007-03-30 08:55:28 51°20.175 2°52.514 8.2502 3.328127 30.288378 -2.871232
2007-03-30 08:55:33 51°20.178 2°52.52 8.2485 3.328127 30.288378 -2.871232
2007-03-30 08:55:38 51°20.181 2°52.526 8.2481 3.328024 30.288154 -2.871232
2007-03-30 08:55:43 51°20.184 2°52.532 8.2474 3.32792 30.287931 -2.871232
2007-03-30 08:55:48 51°20.186 2°52.538 8.2451 3.327713 30.286663 -2.871232
2007-03-30 08:55:53 51°20.189 2°52.544 8.2461 3.327506 30.286216 -2.871232
2007-03-30 08:55:58 51°20.192 2°52.55 8.2452 3.327402 30.285992 -2.871232
2007-03-30 08:56:03 51°20.195 2°52.556 8.2456 3.327402 30.286813 -2.871232
2007-03-30 08:56:08 51°20.198 2°52.562 8.2435 3.327402 30.286813 -2.871232
2007-03-30 08:56:13 51°20.201 2°52.568 8.2439 3.327299 30.286589 -2.871232
2007-03-30 08:56:18 51°20.204 2°52.574 8.2474 3.327299 30.28741 -2.871232
2007-03-30 08:56:23 51°20.207 2°52.58 8.2486 3.327402 30.289275 -2.871232
2007-03-30 08:56:28 51°20.21 2°52.586 8.2539 3.32761 30.292184 -2.871232
2007-03-30 08:56:33 51°20.213 2°52.592 8.254 3.32761 30.293005 -2.871232
2007-03-30 08:56:37 51°20.215 2°52.596 8.2553 3.32761 30.293005 -2.871232
2007-03-30 08:56:43 51°20.218 2°52.604 8.2572 3.327817 30.295093 -2.871232
2007-03-30 08:56:48 51°20.221 2°52.61 8.2598 3.328231 30.29927 -2.871232
2007-03-30 08:56:53 51°20.224 2°52.616 8.2595 3.329369 30.309937 -2.871232
2007-03-30 08:56:58 51°20.227 2°52.622 8.2611 3.330715 30.32187 -2.871232
2007-03-30 08:57:03 51°20.229 2°52.628 8.2609 3.33175 30.329849 -2.871232
2007-03-30 08:57:08 51°20.232 2°52.634 8.2624 3.33175 30.329849 -2.871232
2007-03-30 08:57:13 51°20.234 2°52.641 8.2618 3.332682 30.336782 -2.871232
2007-03-30 08:57:18 51°20.237 2°52.647 8.2624 3.333614 30.345359 -2.871232
2007-03-30 08:57:23 51°20.239 2°52.653 8.2648 3.334442 30.352069 -2.871232
2007-03-30 08:57:28 51°20.242 2°52.659 8.2647 3.335167 30.357734 -2.871232
2007-03-30 08:57:33 51°20.244 2°52.666 8.2656 3.335684 30.361311 -2.871232
2007-03-30 08:57:38 51°20.247 2°52.672 8.2662 3.335684 30.361311 -2.871232
2007-03-30 08:57:43 51°20.249 2°52.679 8.2662 3.33527 30.356312 -2.871232
2007-03-30 08:57:48 51°20.251 2°52.685 8.267 3.336616 30.369887 -2.871232
2007-03-30 08:57:53 51°20.254 2°52.691 8.2659 3.337237 30.375329 -2.871232
2007-03-30 08:57:58 51°20.256 2°52.698 8.2675 3.337858 30.379949 -2.871232
2007-03-30 08:58:03 51°20.259 2°52.704 8.2676 3.338376 30.38517 -2.871232
2007-03-30 08:58:08 51°20.262 2°52.71 8.2665 3.338376 30.38517 -2.871232
2007-03-30 08:58:13 51°20.264 2°52.716 8.2676 3.33879 30.388524 -2.871232
2007-03-30 08:58:18 51°20.267 2°52.722 8.2683 3.339204 30.392701 -2.871232
2007-03-30 08:58:23 51°20.27 2°52.728 8.27 3.339515 30.395011 -2.871232